<?xml version="1.0" encoding="UTF-8" standalone="no" ?>
<gpx xmlns="http://www.topografix.com/GPX/1/1" xmlns:xsi="http://www.w3.org/2001/XMLSchema-instance" xsi:schemaLocation="http://www.topografix.com/GPX/1/1 http://www.topografix.com/GPX/1/1/gpx.xsd" version="1.1" creator="VisuGPX - https://www.visugpx.com">
  <metadata>
    <name>Saint Jacques, couloir Nord</name>
    <desc><![CDATA[départ de Bellecote]]></desc>
  </metadata>
  <trk>
    <name><![CDATA[Tracé actuel: 17 FEV 2016 11:21]]></name>
    <trkseg>
      <trkpt lat="45.5075" lon="6.68787">
        <ele>2083.79</ele>
        <time>2016-02-17T10:21:53Z</time>
      </trkpt>
      <trkpt lat="45.5075" lon="6.68787">
        <ele>2083.79</ele>
        <time>2016-02-17T10:21:54Z</time>
      </trkpt>
      <trkpt lat="45.50734" lon="6.6879">
        <ele>2080.43</ele>
        <time>2016-02-17T10:22:11Z</time>
      </trkpt>
      <trkpt lat="45.50734" lon="6.6879">
        <ele>2080.43</ele>
        <time>2016-02-17T10:22:12Z</time>
      </trkpt>
      <trkpt lat="45.50734" lon="6.68791">
        <ele>2077.07</ele>
        <time>2016-02-17T10:22:25Z</time>
      </trkpt>
      <trkpt lat="45.50731" lon="6.68791">
        <ele>2075.14</ele>
        <time>2016-02-17T10:22:39Z</time>
      </trkpt>
      <trkpt lat="45.50732" lon="6.6879">
        <ele>2069.86</ele>
        <time>2016-02-17T10:22:45Z</time>
      </trkpt>
      <trkpt lat="45.50732" lon="6.68791">
        <ele>2074.66</ele>
        <time>2016-02-17T10:22:46Z</time>
      </trkpt>
      <trkpt lat="45.50733" lon="6.68791">
        <ele>2071.3</ele>
        <time>2016-02-17T10:22:53Z</time>
      </trkpt>
      <trkpt lat="45.50733" lon="6.68791">
        <ele>2072.26</ele>
        <time>2016-02-17T10:22:54Z</time>
      </trkpt>
      <trkpt lat="45.50733" lon="6.68792">
        <ele>2071.3</ele>
        <time>2016-02-17T10:22:58Z</time>
      </trkpt>
      <trkpt lat="45.50733" lon="6.68792">
        <ele>2072.74</ele>
        <time>2016-02-17T10:23:00Z</time>
      </trkpt>
      <trkpt lat="45.50732" lon="6.68789">
        <ele>2072.26</ele>
        <time>2016-02-17T10:23:20Z</time>
      </trkpt>
      <trkpt lat="45.50735" lon="6.68791">
        <ele>2072.74</ele>
        <time>2016-02-17T10:23:32Z</time>
      </trkpt>
      <trkpt lat="45.50735" lon="6.68789">
        <ele>2072.74</ele>
        <time>2016-02-17T10:23:34Z</time>
      </trkpt>
      <trkpt lat="45.50734" lon="6.68789">
        <ele>2072.74</ele>
        <time>2016-02-17T10:23:47Z</time>
      </trkpt>
      <trkpt lat="45.50732" lon="6.68793">
        <ele>2072.74</ele>
        <time>2016-02-17T10:23:54Z</time>
      </trkpt>
      <trkpt lat="45.5072" lon="6.68812">
        <ele>2073.22</ele>
        <time>2016-02-17T10:24:07Z</time>
      </trkpt>
      <trkpt lat="45.50713" lon="6.68828">
        <ele>2074.18</ele>
        <time>2016-02-17T10:24:19Z</time>
      </trkpt>
      <trkpt lat="45.50703" lon="6.68848">
        <ele>2074.66</ele>
        <time>2016-02-17T10:24:35Z</time>
      </trkpt>
      <trkpt lat="45.50693" lon="6.68864">
        <ele>2075.62</ele>
        <time>2016-02-17T10:24:49Z</time>
      </trkpt>
      <trkpt lat="45.50692" lon="6.6887">
        <ele>2076.59</ele>
        <time>2016-02-17T10:24:54Z</time>
      </trkpt>
      <trkpt lat="45.50692" lon="6.68872">
        <ele>2077.07</ele>
        <time>2016-02-17T10:24:56Z</time>
      </trkpt>
      <trkpt lat="45.50703" lon="6.68884">
        <ele>2079.95</ele>
        <time>2016-02-17T10:25:11Z</time>
      </trkpt>
      <trkpt lat="45.50714" lon="6.68895">
        <ele>2083.31</ele>
        <time>2016-02-17T10:25:27Z</time>
      </trkpt>
      <trkpt lat="45.50724" lon="6.689">
        <ele>2086.68</ele>
        <time>2016-02-17T10:25:42Z</time>
      </trkpt>
      <trkpt lat="45.50736" lon="6.68907">
        <ele>2090.52</ele>
        <time>2016-02-17T10:25:58Z</time>
      </trkpt>
      <trkpt lat="45.50743" lon="6.68911">
        <ele>2092.93</ele>
        <time>2016-02-17T10:26:14Z</time>
      </trkpt>
      <trkpt lat="45.50752" lon="6.68915">
        <ele>2096.29</ele>
        <time>2016-02-17T10:26:27Z</time>
      </trkpt>
      <trkpt lat="45.50763" lon="6.68922">
        <ele>2099.66</ele>
        <time>2016-02-17T10:26:42Z</time>
      </trkpt>
      <trkpt lat="45.50774" lon="6.68926">
        <ele>2103.02</ele>
        <time>2016-02-17T10:26:57Z</time>
      </trkpt>
      <trkpt lat="45.50787" lon="6.68932">
        <ele>2106.39</ele>
        <time>2016-02-17T10:27:16Z</time>
      </trkpt>
      <trkpt lat="45.50801" lon="6.68941">
        <ele>2109.27</ele>
        <time>2016-02-17T10:27:35Z</time>
      </trkpt>
      <trkpt lat="45.50811" lon="6.68949">
        <ele>2112.15</ele>
        <time>2016-02-17T10:27:50Z</time>
      </trkpt>
      <trkpt lat="45.50821" lon="6.68958">
        <ele>2115.52</ele>
        <time>2016-02-17T10:28:07Z</time>
      </trkpt>
      <trkpt lat="45.50828" lon="6.68967">
        <ele>2117.92</ele>
        <time>2016-02-17T10:28:21Z</time>
      </trkpt>
      <trkpt lat="45.50831" lon="6.68983">
        <ele>2120.81</ele>
        <time>2016-02-17T10:28:37Z</time>
      </trkpt>
      <trkpt lat="45.50834" lon="6.69005">
        <ele>2123.21</ele>
        <time>2016-02-17T10:28:55Z</time>
      </trkpt>
      <trkpt lat="45.50835" lon="6.69025">
        <ele>2126.57</ele>
        <time>2016-02-17T10:29:11Z</time>
      </trkpt>
      <trkpt lat="45.50834" lon="6.6905">
        <ele>2128.5</ele>
        <time>2016-02-17T10:29:28Z</time>
      </trkpt>
      <trkpt lat="45.50831" lon="6.69074">
        <ele>2131.38</ele>
        <time>2016-02-17T10:29:46Z</time>
      </trkpt>
      <trkpt lat="45.5083" lon="6.69081">
        <ele>2131.38</ele>
        <time>2016-02-17T10:29:51Z</time>
      </trkpt>
      <trkpt lat="45.50836" lon="6.69098">
        <ele>2131.86</ele>
        <time>2016-02-17T10:30:07Z</time>
      </trkpt>
      <trkpt lat="45.50841" lon="6.69107">
        <ele>2132.34</ele>
        <time>2016-02-17T10:30:22Z</time>
      </trkpt>
      <trkpt lat="45.50851" lon="6.69131">
        <ele>2132.82</ele>
        <time>2016-02-17T10:30:38Z</time>
      </trkpt>
      <trkpt lat="45.50859" lon="6.69159">
        <ele>2132.82</ele>
        <time>2016-02-17T10:30:54Z</time>
      </trkpt>
      <trkpt lat="45.50872" lon="6.6918">
        <ele>2133.3</ele>
        <time>2016-02-17T10:31:11Z</time>
      </trkpt>
      <trkpt lat="45.50871" lon="6.69181">
        <ele>2133.3</ele>
        <time>2016-02-17T10:31:26Z</time>
      </trkpt>
      <trkpt lat="45.50871" lon="6.6918">
        <ele>2133.3</ele>
        <time>2016-02-17T10:31:43Z</time>
      </trkpt>
      <trkpt lat="45.50872" lon="6.6918">
        <ele>2133.3</ele>
        <time>2016-02-17T10:31:56Z</time>
      </trkpt>
      <trkpt lat="45.50871" lon="6.69182">
        <ele>2132.34</ele>
        <time>2016-02-17T10:32:09Z</time>
      </trkpt>
      <trkpt lat="45.50871" lon="6.69183">
        <ele>2132.34</ele>
        <time>2016-02-17T10:32:44Z</time>
      </trkpt>
      <trkpt lat="45.5087" lon="6.69182">
        <ele>2131.86</ele>
        <time>2016-02-17T10:33:24Z</time>
      </trkpt>
      <trkpt lat="45.50871" lon="6.69182">
        <ele>2134.26</ele>
        <time>2016-02-17T10:34:02Z</time>
      </trkpt>
      <trkpt lat="45.50871" lon="6.69182">
        <ele>2132.82</ele>
        <time>2016-02-17T10:34:04Z</time>
      </trkpt>
      <trkpt lat="45.50871" lon="6.69183">
        <ele>2132.34</ele>
        <time>2016-02-17T10:34:09Z</time>
      </trkpt>
      <trkpt lat="45.50871" lon="6.69184">
        <ele>2133.3</ele>
        <time>2016-02-17T10:34:11Z</time>
      </trkpt>
      <trkpt lat="45.50871" lon="6.6918">
        <ele>2132.34</ele>
        <time>2016-02-17T10:34:24Z</time>
      </trkpt>
      <trkpt lat="45.50871" lon="6.69182">
        <ele>2130.9</ele>
        <time>2016-02-17T10:34:34Z</time>
      </trkpt>
      <trkpt lat="45.50871" lon="6.69183">
        <ele>2133.3</ele>
        <time>2016-02-17T10:34:37Z</time>
      </trkpt>
      <trkpt lat="45.50871" lon="6.69181">
        <ele>2131.86</ele>
        <time>2016-02-17T10:34:45Z</time>
      </trkpt>
      <trkpt lat="45.50872" lon="6.69182">
        <ele>2129.94</ele>
        <time>2016-02-17T10:34:53Z</time>
      </trkpt>
      <trkpt lat="45.50872" lon="6.69182">
        <ele>2134.26</ele>
        <time>2016-02-17T10:34:55Z</time>
      </trkpt>
      <trkpt lat="45.50873" lon="6.69185">
        <ele>2137.63</ele>
        <time>2016-02-17T10:34:56Z</time>
      </trkpt>
      <trkpt lat="45.50872" lon="6.69186">
        <ele>2132.82</ele>
        <time>2016-02-17T10:34:57Z</time>
      </trkpt>
      <trkpt lat="45.50872" lon="6.69186">
        <ele>2132.82</ele>
        <time>2016-02-17T10:34:58Z</time>
      </trkpt>
      <trkpt lat="45.50873" lon="6.69185">
        <ele>2132.34</ele>
        <time>2016-02-17T10:35:14Z</time>
      </trkpt>
      <trkpt lat="45.50878" lon="6.6919">
        <ele>2132.34</ele>
        <time>2016-02-17T10:35:19Z</time>
      </trkpt>
      <trkpt lat="45.50886" lon="6.69209">
        <ele>2130.9</ele>
        <time>2016-02-17T10:35:27Z</time>
      </trkpt>
      <trkpt lat="45.50901" lon="6.69227">
        <ele>2126.09</ele>
        <time>2016-02-17T10:35:30Z</time>
      </trkpt>
      <trkpt lat="45.50915" lon="6.69237">
        <ele>2124.17</ele>
        <time>2016-02-17T10:35:32Z</time>
      </trkpt>
      <trkpt lat="45.50925" lon="6.69243">
        <ele>2122.73</ele>
        <time>2016-02-17T10:35:34Z</time>
      </trkpt>
      <trkpt lat="45.50944" lon="6.69243">
        <ele>2122.73</ele>
        <time>2016-02-17T10:35:39Z</time>
      </trkpt>
      <trkpt lat="45.50954" lon="6.69243">
        <ele>2119.36</ele>
        <time>2016-02-17T10:35:41Z</time>
      </trkpt>
      <trkpt lat="45.5097" lon="6.69242">
        <ele>2115.04</ele>
        <time>2016-02-17T10:35:43Z</time>
      </trkpt>
      <trkpt lat="45.50976" lon="6.69245">
        <ele>2115.04</ele>
        <time>2016-02-17T10:35:44Z</time>
      </trkpt>
      <trkpt lat="45.50988" lon="6.69259">
        <ele>2113.6</ele>
        <time>2016-02-17T10:35:49Z</time>
      </trkpt>
      <trkpt lat="45.50988" lon="6.6926">
        <ele>2113.12</ele>
        <time>2016-02-17T10:35:53Z</time>
      </trkpt>
      <trkpt lat="45.50991" lon="6.69257">
        <ele>2110.71</ele>
        <time>2016-02-17T10:35:59Z</time>
      </trkpt>
      <trkpt lat="45.50998" lon="6.69263">
        <ele>2105.91</ele>
        <time>2016-02-17T10:36:02Z</time>
      </trkpt>
      <trkpt lat="45.50998" lon="6.69269">
        <ele>2105.42</ele>
        <time>2016-02-17T10:36:03Z</time>
      </trkpt>
      <trkpt lat="45.51" lon="6.69284">
        <ele>2103.02</ele>
        <time>2016-02-17T10:36:06Z</time>
      </trkpt>
      <trkpt lat="45.51002" lon="6.69283">
        <ele>2099.66</ele>
        <time>2016-02-17T10:36:07Z</time>
      </trkpt>
      <trkpt lat="45.51006" lon="6.69277">
        <ele>2096.29</ele>
        <time>2016-02-17T10:36:09Z</time>
      </trkpt>
      <trkpt lat="45.51009" lon="6.69276">
        <ele>2097.73</ele>
        <time>2016-02-17T10:36:10Z</time>
      </trkpt>
      <trkpt lat="45.51014" lon="6.69276">
        <ele>2093.41</ele>
        <time>2016-02-17T10:36:11Z</time>
      </trkpt>
      <trkpt lat="45.51016" lon="6.69278">
        <ele>2094.85</ele>
        <time>2016-02-17T10:36:12Z</time>
      </trkpt>
      <trkpt lat="45.51017" lon="6.69286">
        <ele>2088.12</ele>
        <time>2016-02-17T10:36:14Z</time>
      </trkpt>
      <trkpt lat="45.5102" lon="6.6929">
        <ele>2092.93</ele>
        <time>2016-02-17T10:36:15Z</time>
      </trkpt>
      <trkpt lat="45.51022" lon="6.69291">
        <ele>2088.6</ele>
        <time>2016-02-17T10:36:16Z</time>
      </trkpt>
      <trkpt lat="45.51025" lon="6.69291">
        <ele>2086.2</ele>
        <time>2016-02-17T10:36:18Z</time>
      </trkpt>
      <trkpt lat="45.51029" lon="6.69286">
        <ele>2084.28</ele>
        <time>2016-02-17T10:36:21Z</time>
      </trkpt>
      <trkpt lat="45.51036" lon="6.69292">
        <ele>2081.87</ele>
        <time>2016-02-17T10:36:24Z</time>
      </trkpt>
      <trkpt lat="45.51044" lon="6.69304">
        <ele>2077.07</ele>
        <time>2016-02-17T10:36:26Z</time>
      </trkpt>
      <trkpt lat="45.5105" lon="6.69327">
        <ele>2074.18</ele>
        <time>2016-02-17T10:36:30Z</time>
      </trkpt>
      <trkpt lat="45.51049" lon="6.69328">
        <ele>2075.14</ele>
        <time>2016-02-17T10:36:32Z</time>
      </trkpt>
      <trkpt lat="45.51051" lon="6.69339">
        <ele>2073.7</ele>
        <time>2016-02-17T10:36:36Z</time>
      </trkpt>
      <trkpt lat="45.51046" lon="6.69346">
        <ele>2073.22</ele>
        <time>2016-02-17T10:36:48Z</time>
      </trkpt>
      <trkpt lat="45.51046" lon="6.69346">
        <ele>2073.22</ele>
        <time>2016-02-17T10:36:52Z</time>
      </trkpt>
      <trkpt lat="45.51048" lon="6.69357">
        <ele>2069.86</ele>
        <time>2016-02-17T10:36:56Z</time>
      </trkpt>
      <trkpt lat="45.51053" lon="6.69362">
        <ele>2068.89</ele>
        <time>2016-02-17T10:36:58Z</time>
      </trkpt>
      <trkpt lat="45.51052" lon="6.69371">
        <ele>2065.05</ele>
        <time>2016-02-17T10:37:00Z</time>
      </trkpt>
      <trkpt lat="45.51045" lon="6.69382">
        <ele>2063.61</ele>
        <time>2016-02-17T10:37:06Z</time>
      </trkpt>
      <trkpt lat="45.51045" lon="6.69382">
        <ele>2063.61</ele>
        <time>2016-02-17T10:37:07Z</time>
      </trkpt>
      <trkpt lat="45.51038" lon="6.69394">
        <ele>2058.8</ele>
        <time>2016-02-17T10:37:11Z</time>
      </trkpt>
      <trkpt lat="45.51037" lon="6.69395">
        <ele>2058.8</ele>
        <time>2016-02-17T10:37:12Z</time>
      </trkpt>
      <trkpt lat="45.51037" lon="6.69397">
        <ele>2060.24</ele>
        <time>2016-02-17T10:37:15Z</time>
      </trkpt>
      <trkpt lat="45.5104" lon="6.69399">
        <ele>2056.4</ele>
        <time>2016-02-17T10:37:18Z</time>
      </trkpt>
      <trkpt lat="45.5104" lon="6.694">
        <ele>2056.4</ele>
        <time>2016-02-17T10:37:19Z</time>
      </trkpt>
      <trkpt lat="45.51042" lon="6.69409">
        <ele>2051.59</ele>
        <time>2016-02-17T10:37:23Z</time>
      </trkpt>
      <trkpt lat="45.51043" lon="6.69408">
        <ele>2051.59</ele>
        <time>2016-02-17T10:37:24Z</time>
      </trkpt>
      <trkpt lat="45.5104" lon="6.69413">
        <ele>2050.63</ele>
        <time>2016-02-17T10:37:28Z</time>
      </trkpt>
      <trkpt lat="45.51041" lon="6.69418">
        <ele>2049.19</ele>
        <time>2016-02-17T10:37:31Z</time>
      </trkpt>
      <trkpt lat="45.5104" lon="6.69419">
        <ele>2049.19</ele>
        <time>2016-02-17T10:37:32Z</time>
      </trkpt>
      <trkpt lat="45.5104" lon="6.69427">
        <ele>2044.86</ele>
        <time>2016-02-17T10:37:36Z</time>
      </trkpt>
      <trkpt lat="45.5104" lon="6.69428">
        <ele>2045.34</ele>
        <time>2016-02-17T10:37:37Z</time>
      </trkpt>
      <trkpt lat="45.51043" lon="6.69433">
        <ele>2042.94</ele>
        <time>2016-02-17T10:37:40Z</time>
      </trkpt>
      <trkpt lat="45.51047" lon="6.69435">
        <ele>2041.98</ele>
        <time>2016-02-17T10:37:42Z</time>
      </trkpt>
      <trkpt lat="45.5105" lon="6.69436">
        <ele>2040.54</ele>
        <time>2016-02-17T10:37:43Z</time>
      </trkpt>
      <trkpt lat="45.51054" lon="6.69437">
        <ele>2039.57</ele>
        <time>2016-02-17T10:37:44Z</time>
      </trkpt>
      <trkpt lat="45.51056" lon="6.69438">
        <ele>2040.05</ele>
        <time>2016-02-17T10:37:45Z</time>
      </trkpt>
      <trkpt lat="45.51058" lon="6.69444">
        <ele>2038.61</ele>
        <time>2016-02-17T10:37:48Z</time>
      </trkpt>
      <trkpt lat="45.51059" lon="6.69447">
        <ele>2037.65</ele>
        <time>2016-02-17T10:37:50Z</time>
      </trkpt>
      <trkpt lat="45.51059" lon="6.69451">
        <ele>2035.73</ele>
        <time>2016-02-17T10:37:54Z</time>
      </trkpt>
      <trkpt lat="45.51059" lon="6.69454">
        <ele>2037.17</ele>
        <time>2016-02-17T10:37:55Z</time>
      </trkpt>
      <trkpt lat="45.51058" lon="6.69457">
        <ele>2034.29</ele>
        <time>2016-02-17T10:37:57Z</time>
      </trkpt>
      <trkpt lat="45.51057" lon="6.6946">
        <ele>2033.33</ele>
        <time>2016-02-17T10:38:00Z</time>
      </trkpt>
      <trkpt lat="45.51055" lon="6.69462">
        <ele>2030.44</ele>
        <time>2016-02-17T10:38:06Z</time>
      </trkpt>
      <trkpt lat="45.51055" lon="6.69462">
        <ele>2035.25</ele>
        <time>2016-02-17T10:38:07Z</time>
      </trkpt>
      <trkpt lat="45.51054" lon="6.69465">
        <ele>2031.4</ele>
        <time>2016-02-17T10:38:10Z</time>
      </trkpt>
      <trkpt lat="45.51054" lon="6.69474">
        <ele>2029.96</ele>
        <time>2016-02-17T10:38:12Z</time>
      </trkpt>
      <trkpt lat="45.51063" lon="6.69474">
        <ele>2027.56</ele>
        <time>2016-02-17T10:38:15Z</time>
      </trkpt>
      <trkpt lat="45.51062" lon="6.69476">
        <ele>2027.56</ele>
        <time>2016-02-17T10:38:17Z</time>
      </trkpt>
      <trkpt lat="45.51067" lon="6.69484">
        <ele>2025.15</ele>
        <time>2016-02-17T10:38:20Z</time>
      </trkpt>
      <trkpt lat="45.51071" lon="6.69495">
        <ele>2023.23</ele>
        <time>2016-02-17T10:38:23Z</time>
      </trkpt>
      <trkpt lat="45.51071" lon="6.69499">
        <ele>2021.31</ele>
        <time>2016-02-17T10:38:24Z</time>
      </trkpt>
      <trkpt lat="45.5107" lon="6.69502">
        <ele>2021.31</ele>
        <time>2016-02-17T10:38:25Z</time>
      </trkpt>
      <trkpt lat="45.51069" lon="6.69503">
        <ele>2021.31</ele>
        <time>2016-02-17T10:38:26Z</time>
      </trkpt>
      <trkpt lat="45.51067" lon="6.69505">
        <ele>2020.35</ele>
        <time>2016-02-17T10:38:27Z</time>
      </trkpt>
      <trkpt lat="45.51065" lon="6.69507">
        <ele>2019.39</ele>
        <time>2016-02-17T10:38:28Z</time>
      </trkpt>
      <trkpt lat="45.51065" lon="6.69508">
        <ele>2019.39</ele>
        <time>2016-02-17T10:38:29Z</time>
      </trkpt>
      <trkpt lat="45.51063" lon="6.69522">
        <ele>2012.66</ele>
        <time>2016-02-17T10:38:33Z</time>
      </trkpt>
      <trkpt lat="45.51062" lon="6.69525">
        <ele>2014.1</ele>
        <time>2016-02-17T10:38:34Z</time>
      </trkpt>
      <trkpt lat="45.51062" lon="6.69527">
        <ele>2015.06</ele>
        <time>2016-02-17T10:38:35Z</time>
      </trkpt>
      <trkpt lat="45.5106" lon="6.6953">
        <ele>2012.66</ele>
        <time>2016-02-17T10:38:39Z</time>
      </trkpt>
      <trkpt lat="45.51063" lon="6.69531">
        <ele>2011.22</ele>
        <time>2016-02-17T10:38:41Z</time>
      </trkpt>
      <trkpt lat="45.51068" lon="6.69532">
        <ele>2008.81</ele>
        <time>2016-02-17T10:38:42Z</time>
      </trkpt>
      <trkpt lat="45.51072" lon="6.69533">
        <ele>2008.81</ele>
        <time>2016-02-17T10:38:43Z</time>
      </trkpt>
      <trkpt lat="45.5108" lon="6.69538">
        <ele>2007.85</ele>
        <time>2016-02-17T10:38:46Z</time>
      </trkpt>
      <trkpt lat="45.51087" lon="6.69545">
        <ele>2003.52</ele>
        <time>2016-02-17T10:38:50Z</time>
      </trkpt>
      <trkpt lat="45.5109" lon="6.69548">
        <ele>1995.83</ele>
        <time>2016-02-17T10:38:52Z</time>
      </trkpt>
      <trkpt lat="45.51091" lon="6.6955">
        <ele>1998.24</ele>
        <time>2016-02-17T10:38:53Z</time>
      </trkpt>
      <trkpt lat="45.51094" lon="6.69553">
        <ele>1997.76</ele>
        <time>2016-02-17T10:38:55Z</time>
      </trkpt>
      <trkpt lat="45.511" lon="6.69558">
        <ele>1991.99</ele>
        <time>2016-02-17T10:38:58Z</time>
      </trkpt>
      <trkpt lat="45.51102" lon="6.6956">
        <ele>1988.62</ele>
        <time>2016-02-17T10:38:59Z</time>
      </trkpt>
      <trkpt lat="45.51103" lon="6.69561">
        <ele>1990.55</ele>
        <time>2016-02-17T10:39:00Z</time>
      </trkpt>
      <trkpt lat="45.51096" lon="6.69568">
        <ele>1987.18</ele>
        <time>2016-02-17T10:39:07Z</time>
      </trkpt>
      <trkpt lat="45.51098" lon="6.69572">
        <ele>1985.26</ele>
        <time>2016-02-17T10:39:10Z</time>
      </trkpt>
      <trkpt lat="45.51104" lon="6.69579">
        <ele>1981.9</ele>
        <time>2016-02-17T10:39:14Z</time>
      </trkpt>
      <trkpt lat="45.51106" lon="6.6958">
        <ele>1981.9</ele>
        <time>2016-02-17T10:39:15Z</time>
      </trkpt>
      <trkpt lat="45.51106" lon="6.69583">
        <ele>1981.9</ele>
        <time>2016-02-17T10:39:16Z</time>
      </trkpt>
      <trkpt lat="45.51111" lon="6.69588">
        <ele>1979.97</ele>
        <time>2016-02-17T10:39:20Z</time>
      </trkpt>
      <trkpt lat="45.51114" lon="6.69591">
        <ele>1979.01</ele>
        <time>2016-02-17T10:39:21Z</time>
      </trkpt>
      <trkpt lat="45.51116" lon="6.69596">
        <ele>1973.72</ele>
        <time>2016-02-17T10:39:22Z</time>
      </trkpt>
      <trkpt lat="45.51119" lon="6.696">
        <ele>1977.57</ele>
        <time>2016-02-17T10:39:23Z</time>
      </trkpt>
      <trkpt lat="45.51122" lon="6.69604">
        <ele>1972.28</ele>
        <time>2016-02-17T10:39:24Z</time>
      </trkpt>
      <trkpt lat="45.51123" lon="6.69612">
        <ele>1966.03</ele>
        <time>2016-02-17T10:39:25Z</time>
      </trkpt>
      <trkpt lat="45.51121" lon="6.6962">
        <ele>1971.32</ele>
        <time>2016-02-17T10:39:26Z</time>
      </trkpt>
      <trkpt lat="45.51118" lon="6.69627">
        <ele>1967.48</ele>
        <time>2016-02-17T10:39:27Z</time>
      </trkpt>
      <trkpt lat="45.51114" lon="6.69635">
        <ele>1966.99</ele>
        <time>2016-02-17T10:39:28Z</time>
      </trkpt>
      <trkpt lat="45.51111" lon="6.6964">
        <ele>1966.99</ele>
        <time>2016-02-17T10:39:29Z</time>
      </trkpt>
      <trkpt lat="45.51108" lon="6.69646">
        <ele>1966.99</ele>
        <time>2016-02-17T10:39:32Z</time>
      </trkpt>
      <trkpt lat="45.51109" lon="6.6966">
        <ele>1964.59</ele>
        <time>2016-02-17T10:39:35Z</time>
      </trkpt>
      <trkpt lat="45.51109" lon="6.69668">
        <ele>1962.67</ele>
        <time>2016-02-17T10:39:36Z</time>
      </trkpt>
      <trkpt lat="45.51109" lon="6.69676">
        <ele>1961.71</ele>
        <time>2016-02-17T10:39:37Z</time>
      </trkpt>
      <trkpt lat="45.51108" lon="6.69703">
        <ele>1958.82</ele>
        <time>2016-02-17T10:39:40Z</time>
      </trkpt>
      <trkpt lat="45.51108" lon="6.69724">
        <ele>1955.46</ele>
        <time>2016-02-17T10:39:42Z</time>
      </trkpt>
      <trkpt lat="45.51123" lon="6.69735">
        <ele>1951.61</ele>
        <time>2016-02-17T10:39:45Z</time>
      </trkpt>
      <trkpt lat="45.51139" lon="6.69745">
        <ele>1948.25</ele>
        <time>2016-02-17T10:39:48Z</time>
      </trkpt>
      <trkpt lat="45.51152" lon="6.69752">
        <ele>1944.88</ele>
        <time>2016-02-17T10:39:50Z</time>
      </trkpt>
      <trkpt lat="45.51164" lon="6.6976">
        <ele>1941.04</ele>
        <time>2016-02-17T10:39:52Z</time>
      </trkpt>
      <trkpt lat="45.5117" lon="6.69765">
        <ele>1938.64</ele>
        <time>2016-02-17T10:39:53Z</time>
      </trkpt>
      <trkpt lat="45.51177" lon="6.69772">
        <ele>1937.67</ele>
        <time>2016-02-17T10:39:54Z</time>
      </trkpt>
      <trkpt lat="45.51184" lon="6.6978">
        <ele>1937.67</ele>
        <time>2016-02-17T10:39:55Z</time>
      </trkpt>
      <trkpt lat="45.51191" lon="6.69786">
        <ele>1937.19</ele>
        <time>2016-02-17T10:39:56Z</time>
      </trkpt>
      <trkpt lat="45.51208" lon="6.69798">
        <ele>1933.83</ele>
        <time>2016-02-17T10:39:58Z</time>
      </trkpt>
      <trkpt lat="45.51225" lon="6.69805">
        <ele>1932.87</ele>
        <time>2016-02-17T10:40:00Z</time>
      </trkpt>
      <trkpt lat="45.51234" lon="6.69806">
        <ele>1931.91</ele>
        <time>2016-02-17T10:40:01Z</time>
      </trkpt>
      <trkpt lat="45.51262" lon="6.69799">
        <ele>1927.58</ele>
        <time>2016-02-17T10:40:04Z</time>
      </trkpt>
      <trkpt lat="45.51278" lon="6.69788">
        <ele>1927.1</ele>
        <time>2016-02-17T10:40:06Z</time>
      </trkpt>
      <trkpt lat="45.51299" lon="6.69772">
        <ele>1926.14</ele>
        <time>2016-02-17T10:40:09Z</time>
      </trkpt>
      <trkpt lat="45.51305" lon="6.69767">
        <ele>1926.14</ele>
        <time>2016-02-17T10:40:10Z</time>
      </trkpt>
      <trkpt lat="45.5131" lon="6.69764">
        <ele>1926.14</ele>
        <time>2016-02-17T10:40:11Z</time>
      </trkpt>
      <trkpt lat="45.51315" lon="6.69762">
        <ele>1926.14</ele>
        <time>2016-02-17T10:40:12Z</time>
      </trkpt>
      <trkpt lat="45.51327" lon="6.69755">
        <ele>1928.06</ele>
        <time>2016-02-17T10:40:20Z</time>
      </trkpt>
      <trkpt lat="45.51324" lon="6.6976">
        <ele>1928.06</ele>
        <time>2016-02-17T10:40:37Z</time>
      </trkpt>
      <trkpt lat="45.51322" lon="6.69761">
        <ele>1928.06</ele>
        <time>2016-02-17T10:40:57Z</time>
      </trkpt>
      <trkpt lat="45.5132" lon="6.69763">
        <ele>1927.1</ele>
        <time>2016-02-17T10:41:19Z</time>
      </trkpt>
      <trkpt lat="45.51319" lon="6.69765">
        <ele>1927.58</ele>
        <time>2016-02-17T10:41:35Z</time>
      </trkpt>
      <trkpt lat="45.5132" lon="6.69765">
        <ele>1929.02</ele>
        <time>2016-02-17T10:41:44Z</time>
      </trkpt>
      <trkpt lat="45.51319" lon="6.69757">
        <ele>1927.58</ele>
        <time>2016-02-17T10:42:05Z</time>
      </trkpt>
      <trkpt lat="45.51319" lon="6.69759">
        <ele>1927.58</ele>
        <time>2016-02-17T10:42:31Z</time>
      </trkpt>
      <trkpt lat="45.5132" lon="6.69762">
        <ele>1927.1</ele>
        <time>2016-02-17T10:42:43Z</time>
      </trkpt>
      <trkpt lat="45.5132" lon="6.69762">
        <ele>1930.95</ele>
        <time>2016-02-17T10:42:49Z</time>
      </trkpt>
      <trkpt lat="45.5132" lon="6.69762">
        <ele>1927.58</ele>
        <time>2016-02-17T10:42:50Z</time>
      </trkpt>
      <trkpt lat="45.51319" lon="6.69763">
        <ele>1923.74</ele>
        <time>2016-02-17T10:42:53Z</time>
      </trkpt>
      <trkpt lat="45.51319" lon="6.69763">
        <ele>1927.1</ele>
        <time>2016-02-17T10:42:54Z</time>
      </trkpt>
      <trkpt lat="45.5132" lon="6.69764">
        <ele>1931.91</ele>
        <time>2016-02-17T10:42:55Z</time>
      </trkpt>
      <trkpt lat="45.5132" lon="6.69763">
        <ele>1929.02</ele>
        <time>2016-02-17T10:42:56Z</time>
      </trkpt>
      <trkpt lat="45.5132" lon="6.69763">
        <ele>1927.58</ele>
        <time>2016-02-17T10:42:58Z</time>
      </trkpt>
      <trkpt lat="45.5132" lon="6.69765">
        <ele>1926.62</ele>
        <time>2016-02-17T10:43:16Z</time>
      </trkpt>
      <trkpt lat="45.5132" lon="6.69765">
        <ele>1926.62</ele>
        <time>2016-02-17T10:43:36Z</time>
      </trkpt>
      <trkpt lat="45.51322" lon="6.69763">
        <ele>1928.06</ele>
        <time>2016-02-17T10:43:52Z</time>
      </trkpt>
      <trkpt lat="45.51324" lon="6.69763">
        <ele>1928.06</ele>
        <time>2016-02-17T10:44:13Z</time>
      </trkpt>
      <trkpt lat="45.51324" lon="6.69765">
        <ele>1927.58</ele>
        <time>2016-02-17T10:44:30Z</time>
      </trkpt>
      <trkpt lat="45.51325" lon="6.69765">
        <ele>1927.58</ele>
        <time>2016-02-17T10:44:45Z</time>
      </trkpt>
      <trkpt lat="45.51325" lon="6.69765">
        <ele>1927.58</ele>
        <time>2016-02-17T10:45:03Z</time>
      </trkpt>
      <trkpt lat="45.51322" lon="6.69764">
        <ele>1926.62</ele>
        <time>2016-02-17T10:45:30Z</time>
      </trkpt>
      <trkpt lat="45.51321" lon="6.69764">
        <ele>1926.62</ele>
        <time>2016-02-17T10:45:46Z</time>
      </trkpt>
      <trkpt lat="45.51323" lon="6.69765">
        <ele>1928.06</ele>
        <time>2016-02-17T10:46:08Z</time>
      </trkpt>
      <trkpt lat="45.51323" lon="6.69765">
        <ele>1927.58</ele>
        <time>2016-02-17T10:46:25Z</time>
      </trkpt>
      <trkpt lat="45.51322" lon="6.69766">
        <ele>1927.58</ele>
        <time>2016-02-17T10:46:49Z</time>
      </trkpt>
      <trkpt lat="45.51322" lon="6.69764">
        <ele>1927.58</ele>
        <time>2016-02-17T10:47:03Z</time>
      </trkpt>
      <trkpt lat="45.5132" lon="6.69765">
        <ele>1927.58</ele>
        <time>2016-02-17T10:47:18Z</time>
      </trkpt>
      <trkpt lat="45.51321" lon="6.69766">
        <ele>1928.06</ele>
        <time>2016-02-17T10:47:41Z</time>
      </trkpt>
      <trkpt lat="45.51319" lon="6.69768">
        <ele>1928.06</ele>
        <time>2016-02-17T10:48:04Z</time>
      </trkpt>
      <trkpt lat="45.5132" lon="6.69769">
        <ele>1928.06</ele>
        <time>2016-02-17T10:48:21Z</time>
      </trkpt>
      <trkpt lat="45.51321" lon="6.69768">
        <ele>1926.62</ele>
        <time>2016-02-17T10:48:28Z</time>
      </trkpt>
      <trkpt lat="45.51324" lon="6.69764">
        <ele>1926.62</ele>
        <time>2016-02-17T10:48:45Z</time>
      </trkpt>
      <trkpt lat="45.51321" lon="6.69765">
        <ele>1926.62</ele>
        <time>2016-02-17T10:49:10Z</time>
      </trkpt>
      <trkpt lat="45.51326" lon="6.69764">
        <ele>1927.1</ele>
        <time>2016-02-17T10:49:31Z</time>
      </trkpt>
      <trkpt lat="45.5133" lon="6.69765">
        <ele>1927.1</ele>
        <time>2016-02-17T10:49:53Z</time>
      </trkpt>
      <trkpt lat="45.51328" lon="6.69763">
        <ele>1927.1</ele>
        <time>2016-02-17T10:50:12Z</time>
      </trkpt>
      <trkpt lat="45.51329" lon="6.69761">
        <ele>1927.58</ele>
        <time>2016-02-17T10:50:29Z</time>
      </trkpt>
      <trkpt lat="45.5133" lon="6.6976">
        <ele>1927.58</ele>
        <time>2016-02-17T10:50:47Z</time>
      </trkpt>
      <trkpt lat="45.51331" lon="6.69758">
        <ele>1927.58</ele>
        <time>2016-02-17T10:51:05Z</time>
      </trkpt>
      <trkpt lat="45.5133" lon="6.6976">
        <ele>1927.58</ele>
        <time>2016-02-17T10:51:20Z</time>
      </trkpt>
      <trkpt lat="45.51332" lon="6.69761">
        <ele>1927.58</ele>
        <time>2016-02-17T10:51:40Z</time>
      </trkpt>
      <trkpt lat="45.51329" lon="6.69763">
        <ele>1927.58</ele>
        <time>2016-02-17T10:52:01Z</time>
      </trkpt>
      <trkpt lat="45.51333" lon="6.69759">
        <ele>1927.58</ele>
        <time>2016-02-17T10:52:18Z</time>
      </trkpt>
      <trkpt lat="45.51331" lon="6.6976">
        <ele>1927.58</ele>
        <time>2016-02-17T10:52:37Z</time>
      </trkpt>
      <trkpt lat="45.51332" lon="6.69761">
        <ele>1927.58</ele>
        <time>2016-02-17T10:52:53Z</time>
      </trkpt>
      <trkpt lat="45.51328" lon="6.69762">
        <ele>1927.58</ele>
        <time>2016-02-17T10:53:10Z</time>
      </trkpt>
      <trkpt lat="45.51323" lon="6.69763">
        <ele>1927.58</ele>
        <time>2016-02-17T10:53:19Z</time>
      </trkpt>
      <trkpt lat="45.51323" lon="6.69763">
        <ele>1923.25</ele>
        <time>2016-02-17T10:53:20Z</time>
      </trkpt>
      <trkpt lat="45.51324" lon="6.69763">
        <ele>1924.7</ele>
        <time>2016-02-17T10:53:21Z</time>
      </trkpt>
      <trkpt lat="45.51323" lon="6.69763">
        <ele>1927.1</ele>
        <time>2016-02-17T10:53:23Z</time>
      </trkpt>
      <trkpt lat="45.51322" lon="6.69763">
        <ele>1926.14</ele>
        <time>2016-02-17T10:53:28Z</time>
      </trkpt>
      <trkpt lat="45.51321" lon="6.69764">
        <ele>1927.58</ele>
        <time>2016-02-17T10:53:32Z</time>
      </trkpt>
      <trkpt lat="45.51319" lon="6.69764">
        <ele>1926.62</ele>
        <time>2016-02-17T10:53:36Z</time>
      </trkpt>
      <trkpt lat="45.51319" lon="6.69765">
        <ele>1926.62</ele>
        <time>2016-02-17T10:53:58Z</time>
      </trkpt>
      <trkpt lat="45.5132" lon="6.69767">
        <ele>1926.62</ele>
        <time>2016-02-17T10:54:24Z</time>
      </trkpt>
      <trkpt lat="45.51319" lon="6.69765">
        <ele>1926.14</ele>
        <time>2016-02-17T10:54:55Z</time>
      </trkpt>
      <trkpt lat="45.51319" lon="6.69766">
        <ele>1926.14</ele>
        <time>2016-02-17T10:55:15Z</time>
      </trkpt>
      <trkpt lat="45.51319" lon="6.69763">
        <ele>1926.14</ele>
        <time>2016-02-17T10:55:40Z</time>
      </trkpt>
      <trkpt lat="45.51319" lon="6.69765">
        <ele>1926.14</ele>
        <time>2016-02-17T10:56:10Z</time>
      </trkpt>
      <trkpt lat="45.5132" lon="6.69766">
        <ele>1926.14</ele>
        <time>2016-02-17T10:56:44Z</time>
      </trkpt>
      <trkpt lat="45.51319" lon="6.69765">
        <ele>1926.14</ele>
        <time>2016-02-17T10:57:11Z</time>
      </trkpt>
      <trkpt lat="45.51318" lon="6.69766">
        <ele>1926.14</ele>
        <time>2016-02-17T10:57:38Z</time>
      </trkpt>
      <trkpt lat="45.51318" lon="6.69766">
        <ele>1926.14</ele>
        <time>2016-02-17T10:57:41Z</time>
      </trkpt>
      <trkpt lat="45.51318" lon="6.69765">
        <ele>1927.1</ele>
        <time>2016-02-17T10:57:48Z</time>
      </trkpt>
      <trkpt lat="45.5132" lon="6.69765">
        <ele>1927.1</ele>
        <time>2016-02-17T10:58:04Z</time>
      </trkpt>
      <trkpt lat="45.5132" lon="6.69763">
        <ele>1927.1</ele>
        <time>2016-02-17T10:58:13Z</time>
      </trkpt>
      <trkpt lat="45.51319" lon="6.69762">
        <ele>1927.1</ele>
        <time>2016-02-17T10:58:27Z</time>
      </trkpt>
      <trkpt lat="45.51319" lon="6.69762">
        <ele>1927.1</ele>
        <time>2016-02-17T10:58:44Z</time>
      </trkpt>
      <trkpt lat="45.51318" lon="6.69763">
        <ele>1927.1</ele>
        <time>2016-02-17T10:58:49Z</time>
      </trkpt>
      <trkpt lat="45.51317" lon="6.69764">
        <ele>1927.1</ele>
        <time>2016-02-17T10:58:58Z</time>
      </trkpt>
      <trkpt lat="45.51318" lon="6.69763">
        <ele>1927.1</ele>
        <time>2016-02-17T10:59:14Z</time>
      </trkpt>
      <trkpt lat="45.51318" lon="6.69765">
        <ele>1927.1</ele>
        <time>2016-02-17T10:59:24Z</time>
      </trkpt>
      <trkpt lat="45.51319" lon="6.69765">
        <ele>1927.1</ele>
        <time>2016-02-17T10:59:38Z</time>
      </trkpt>
      <trkpt lat="45.51319" lon="6.69764">
        <ele>1927.1</ele>
        <time>2016-02-17T10:59:53Z</time>
      </trkpt>
      <trkpt lat="45.51317" lon="6.69761">
        <ele>1927.1</ele>
        <time>2016-02-17T11:00:09Z</time>
      </trkpt>
      <trkpt lat="45.51316" lon="6.69762">
        <ele>1927.1</ele>
        <time>2016-02-17T11:00:28Z</time>
      </trkpt>
      <trkpt lat="45.51311" lon="6.69763">
        <ele>1927.1</ele>
        <time>2016-02-17T11:00:37Z</time>
      </trkpt>
      <trkpt lat="45.51305" lon="6.69763">
        <ele>1927.1</ele>
        <time>2016-02-17T11:00:41Z</time>
      </trkpt>
      <trkpt lat="45.51303" lon="6.69764">
        <ele>1927.1</ele>
        <time>2016-02-17T11:00:42Z</time>
      </trkpt>
      <trkpt lat="45.51302" lon="6.69765">
        <ele>1927.58</ele>
        <time>2016-02-17T11:00:43Z</time>
      </trkpt>
      <trkpt lat="45.513" lon="6.69766">
        <ele>1927.58</ele>
        <time>2016-02-17T11:00:44Z</time>
      </trkpt>
      <trkpt lat="45.51299" lon="6.69766">
        <ele>1927.58</ele>
        <time>2016-02-17T11:00:45Z</time>
      </trkpt>
      <trkpt lat="45.51297" lon="6.69765">
        <ele>1927.58</ele>
        <time>2016-02-17T11:00:46Z</time>
      </trkpt>
      <trkpt lat="45.51296" lon="6.69764">
        <ele>1927.58</ele>
        <time>2016-02-17T11:00:47Z</time>
      </trkpt>
      <trkpt lat="45.51294" lon="6.69764">
        <ele>1927.58</ele>
        <time>2016-02-17T11:00:48Z</time>
      </trkpt>
      <trkpt lat="45.5129" lon="6.69765">
        <ele>1927.58</ele>
        <time>2016-02-17T11:00:50Z</time>
      </trkpt>
      <trkpt lat="45.51281" lon="6.69795">
        <ele>1928.06</ele>
        <time>2016-02-17T11:01:04Z</time>
      </trkpt>
      <trkpt lat="45.51281" lon="6.69823">
        <ele>1929.5</ele>
        <time>2016-02-17T11:01:18Z</time>
      </trkpt>
      <trkpt lat="45.51287" lon="6.69852">
        <ele>1931.43</ele>
        <time>2016-02-17T11:01:34Z</time>
      </trkpt>
      <trkpt lat="45.51294" lon="6.69879">
        <ele>1933.83</ele>
        <time>2016-02-17T11:01:49Z</time>
      </trkpt>
      <trkpt lat="45.51298" lon="6.69901">
        <ele>1936.23</ele>
        <time>2016-02-17T11:02:03Z</time>
      </trkpt>
      <trkpt lat="45.51303" lon="6.69923">
        <ele>1939.6</ele>
        <time>2016-02-17T11:02:18Z</time>
      </trkpt>
      <trkpt lat="45.51311" lon="6.69948">
        <ele>1942.48</ele>
        <time>2016-02-17T11:02:36Z</time>
      </trkpt>
      <trkpt lat="45.5132" lon="6.69971">
        <ele>1945.36</ele>
        <time>2016-02-17T11:02:52Z</time>
      </trkpt>
      <trkpt lat="45.51323" lon="6.69994">
        <ele>1948.25</ele>
        <time>2016-02-17T11:03:07Z</time>
      </trkpt>
      <trkpt lat="45.51323" lon="6.70016">
        <ele>1951.13</ele>
        <time>2016-02-17T11:03:22Z</time>
      </trkpt>
      <trkpt lat="45.51321" lon="6.70031">
        <ele>1954.02</ele>
        <time>2016-02-17T11:03:33Z</time>
      </trkpt>
      <trkpt lat="45.51318" lon="6.70053">
        <ele>1955.94</ele>
        <time>2016-02-17T11:03:49Z</time>
      </trkpt>
      <trkpt lat="45.51309" lon="6.70072">
        <ele>1958.82</ele>
        <time>2016-02-17T11:04:05Z</time>
      </trkpt>
      <trkpt lat="45.51294" lon="6.70089">
        <ele>1961.71</ele>
        <time>2016-02-17T11:04:23Z</time>
      </trkpt>
      <trkpt lat="45.5129" lon="6.70094">
        <ele>1962.19</ele>
        <time>2016-02-17T11:04:28Z</time>
      </trkpt>
      <trkpt lat="45.51286" lon="6.701">
        <ele>1963.15</ele>
        <time>2016-02-17T11:04:33Z</time>
      </trkpt>
      <trkpt lat="45.51269" lon="6.70116">
        <ele>1965.55</ele>
        <time>2016-02-17T11:04:50Z</time>
      </trkpt>
      <trkpt lat="45.51259" lon="6.70123">
        <ele>1967.48</ele>
        <time>2016-02-17T11:05:02Z</time>
      </trkpt>
      <trkpt lat="45.51255" lon="6.70129">
        <ele>1968.92</ele>
        <time>2016-02-17T11:05:10Z</time>
      </trkpt>
      <trkpt lat="45.51247" lon="6.7014">
        <ele>1972.76</ele>
        <time>2016-02-17T11:05:25Z</time>
      </trkpt>
      <trkpt lat="45.51243" lon="6.7016">
        <ele>1974.69</ele>
        <time>2016-02-17T11:05:41Z</time>
      </trkpt>
      <trkpt lat="45.5124" lon="6.70189">
        <ele>1977.57</ele>
        <time>2016-02-17T11:06:00Z</time>
      </trkpt>
      <trkpt lat="45.5124" lon="6.7019">
        <ele>1977.57</ele>
        <time>2016-02-17T11:06:01Z</time>
      </trkpt>
      <trkpt lat="45.51236" lon="6.70203">
        <ele>1980.45</ele>
        <time>2016-02-17T11:06:14Z</time>
      </trkpt>
      <trkpt lat="45.5123" lon="6.70211">
        <ele>1982.38</ele>
        <time>2016-02-17T11:06:26Z</time>
      </trkpt>
      <trkpt lat="45.51219" lon="6.70221">
        <ele>1985.74</ele>
        <time>2016-02-17T11:06:40Z</time>
      </trkpt>
      <trkpt lat="45.51212" lon="6.70227">
        <ele>1985.74</ele>
        <time>2016-02-17T11:06:46Z</time>
      </trkpt>
      <trkpt lat="45.51203" lon="6.70243">
        <ele>1988.14</ele>
        <time>2016-02-17T11:07:03Z</time>
      </trkpt>
      <trkpt lat="45.51198" lon="6.70257">
        <ele>1991.99</ele>
        <time>2016-02-17T11:07:18Z</time>
      </trkpt>
      <trkpt lat="45.51193" lon="6.70273">
        <ele>1995.35</ele>
        <time>2016-02-17T11:07:35Z</time>
      </trkpt>
      <trkpt lat="45.51187" lon="6.70287">
        <ele>1998.72</ele>
        <time>2016-02-17T11:07:52Z</time>
      </trkpt>
      <trkpt lat="45.51181" lon="6.703">
        <ele>2002.08</ele>
        <time>2016-02-17T11:08:07Z</time>
      </trkpt>
      <trkpt lat="45.51175" lon="6.70316">
        <ele>2005.45</ele>
        <time>2016-02-17T11:08:22Z</time>
      </trkpt>
      <trkpt lat="45.51169" lon="6.70334">
        <ele>2007.85</ele>
        <time>2016-02-17T11:08:38Z</time>
      </trkpt>
      <trkpt lat="45.51167" lon="6.70347">
        <ele>2010.73</ele>
        <time>2016-02-17T11:08:50Z</time>
      </trkpt>
      <trkpt lat="45.51165" lon="6.70357">
        <ele>2014.1</ele>
        <time>2016-02-17T11:09:03Z</time>
      </trkpt>
      <trkpt lat="45.51162" lon="6.70368">
        <ele>2017.46</ele>
        <time>2016-02-17T11:09:15Z</time>
      </trkpt>
      <trkpt lat="45.5116" lon="6.70384">
        <ele>2020.35</ele>
        <time>2016-02-17T11:09:32Z</time>
      </trkpt>
      <trkpt lat="45.51156" lon="6.704">
        <ele>2023.71</ele>
        <time>2016-02-17T11:09:47Z</time>
      </trkpt>
      <trkpt lat="45.5115" lon="6.70406">
        <ele>2024.67</ele>
        <time>2016-02-17T11:10:01Z</time>
      </trkpt>
      <trkpt lat="45.51148" lon="6.70408">
        <ele>2025.15</ele>
        <time>2016-02-17T11:10:04Z</time>
      </trkpt>
      <trkpt lat="45.51138" lon="6.70422">
        <ele>2028.52</ele>
        <time>2016-02-17T11:10:21Z</time>
      </trkpt>
      <trkpt lat="45.51132" lon="6.70438">
        <ele>2030.92</ele>
        <time>2016-02-17T11:10:36Z</time>
      </trkpt>
      <trkpt lat="45.51134" lon="6.70455">
        <ele>2033.81</ele>
        <time>2016-02-17T11:10:51Z</time>
      </trkpt>
      <trkpt lat="45.51134" lon="6.70457">
        <ele>2034.29</ele>
        <time>2016-02-17T11:11:04Z</time>
      </trkpt>
      <trkpt lat="45.51139" lon="6.70465">
        <ele>2036.21</ele>
        <time>2016-02-17T11:11:30Z</time>
      </trkpt>
      <trkpt lat="45.51142" lon="6.70476">
        <ele>2039.57</ele>
        <time>2016-02-17T11:11:43Z</time>
      </trkpt>
      <trkpt lat="45.51143" lon="6.70488">
        <ele>2042.94</ele>
        <time>2016-02-17T11:11:56Z</time>
      </trkpt>
      <trkpt lat="45.51141" lon="6.70501">
        <ele>2045.82</ele>
        <time>2016-02-17T11:12:11Z</time>
      </trkpt>
      <trkpt lat="45.51143" lon="6.70504">
        <ele>2046.78</ele>
        <time>2016-02-17T11:12:14Z</time>
      </trkpt>
      <trkpt lat="45.51147" lon="6.70506">
        <ele>2047.75</ele>
        <time>2016-02-17T11:12:29Z</time>
      </trkpt>
      <trkpt lat="45.51155" lon="6.70505">
        <ele>2049.19</ele>
        <time>2016-02-17T11:12:46Z</time>
      </trkpt>
      <trkpt lat="45.51165" lon="6.70504">
        <ele>2051.11</ele>
        <time>2016-02-17T11:13:03Z</time>
      </trkpt>
      <trkpt lat="45.51173" lon="6.70506">
        <ele>2053.51</ele>
        <time>2016-02-17T11:13:13Z</time>
      </trkpt>
      <trkpt lat="45.51175" lon="6.70507">
        <ele>2054.47</ele>
        <time>2016-02-17T11:13:17Z</time>
      </trkpt>
      <trkpt lat="45.51184" lon="6.70511">
        <ele>2057.84</ele>
        <time>2016-02-17T11:13:32Z</time>
      </trkpt>
      <trkpt lat="45.51192" lon="6.70523">
        <ele>2061.2</ele>
        <time>2016-02-17T11:13:46Z</time>
      </trkpt>
      <trkpt lat="45.51192" lon="6.70525">
        <ele>2061.68</ele>
        <time>2016-02-17T11:13:48Z</time>
      </trkpt>
      <trkpt lat="45.5119" lon="6.70542">
        <ele>2063.61</ele>
        <time>2016-02-17T11:14:02Z</time>
      </trkpt>
      <trkpt lat="45.51182" lon="6.70554">
        <ele>2065.05</ele>
        <time>2016-02-17T11:14:15Z</time>
      </trkpt>
      <trkpt lat="45.51172" lon="6.7057">
        <ele>2067.45</ele>
        <time>2016-02-17T11:14:32Z</time>
      </trkpt>
      <trkpt lat="45.51165" lon="6.70586">
        <ele>2070.34</ele>
        <time>2016-02-17T11:14:47Z</time>
      </trkpt>
      <trkpt lat="45.51158" lon="6.70601">
        <ele>2073.22</ele>
        <time>2016-02-17T11:15:03Z</time>
      </trkpt>
      <trkpt lat="45.51151" lon="6.70614">
        <ele>2076.59</ele>
        <time>2016-02-17T11:15:18Z</time>
      </trkpt>
      <trkpt lat="45.51144" lon="6.70624">
        <ele>2079.47</ele>
        <time>2016-02-17T11:15:32Z</time>
      </trkpt>
      <trkpt lat="45.51134" lon="6.70634">
        <ele>2082.83</ele>
        <time>2016-02-17T11:15:45Z</time>
      </trkpt>
      <trkpt lat="45.51128" lon="6.70641">
        <ele>2085.72</ele>
        <time>2016-02-17T11:15:59Z</time>
      </trkpt>
      <trkpt lat="45.51125" lon="6.70646">
        <ele>2088.6</ele>
        <time>2016-02-17T11:16:13Z</time>
      </trkpt>
      <trkpt lat="45.51125" lon="6.70647">
        <ele>2089.08</ele>
        <time>2016-02-17T11:16:25Z</time>
      </trkpt>
      <trkpt lat="45.51122" lon="6.70657">
        <ele>2091.49</ele>
        <time>2016-02-17T11:16:37Z</time>
      </trkpt>
      <trkpt lat="45.51127" lon="6.70667">
        <ele>2094.37</ele>
        <time>2016-02-17T11:16:52Z</time>
      </trkpt>
      <trkpt lat="45.51135" lon="6.70674">
        <ele>2098.21</ele>
        <time>2016-02-17T11:17:07Z</time>
      </trkpt>
      <trkpt lat="45.5114" lon="6.70676">
        <ele>2098.7</ele>
        <time>2016-02-17T11:17:12Z</time>
      </trkpt>
      <trkpt lat="45.51154" lon="6.70684">
        <ele>2101.1</ele>
        <time>2016-02-17T11:17:28Z</time>
      </trkpt>
      <trkpt lat="45.51168" lon="6.7069">
        <ele>2103.5</ele>
        <time>2016-02-17T11:17:43Z</time>
      </trkpt>
      <trkpt lat="45.5118" lon="6.70693">
        <ele>2105.91</ele>
        <time>2016-02-17T11:17:57Z</time>
      </trkpt>
      <trkpt lat="45.51182" lon="6.70694">
        <ele>2106.39</ele>
        <time>2016-02-17T11:17:59Z</time>
      </trkpt>
      <trkpt lat="45.51197" lon="6.70697">
        <ele>2109.75</ele>
        <time>2016-02-17T11:18:17Z</time>
      </trkpt>
      <trkpt lat="45.51199" lon="6.70697">
        <ele>2109.27</ele>
        <time>2016-02-17T11:18:19Z</time>
      </trkpt>
      <trkpt lat="45.51213" lon="6.70698">
        <ele>2112.15</ele>
        <time>2016-02-17T11:18:35Z</time>
      </trkpt>
      <trkpt lat="45.51228" lon="6.70693">
        <ele>2115.52</ele>
        <time>2016-02-17T11:18:51Z</time>
      </trkpt>
      <trkpt lat="45.51238" lon="6.70691">
        <ele>2117.44</ele>
        <time>2016-02-17T11:19:05Z</time>
      </trkpt>
      <trkpt lat="45.51248" lon="6.70688">
        <ele>2119.36</ele>
        <time>2016-02-17T11:19:18Z</time>
      </trkpt>
      <trkpt lat="45.51263" lon="6.70678">
        <ele>2121.77</ele>
        <time>2016-02-17T11:19:34Z</time>
      </trkpt>
      <trkpt lat="45.51264" lon="6.70677">
        <ele>2122.25</ele>
        <time>2016-02-17T11:19:35Z</time>
      </trkpt>
      <trkpt lat="45.5127" lon="6.70674">
        <ele>2123.21</ele>
        <time>2016-02-17T11:19:42Z</time>
      </trkpt>
      <trkpt lat="45.51282" lon="6.70672">
        <ele>2126.09</ele>
        <time>2016-02-17T11:19:57Z</time>
      </trkpt>
      <trkpt lat="45.51291" lon="6.70681">
        <ele>2128.5</ele>
        <time>2016-02-17T11:20:11Z</time>
      </trkpt>
      <trkpt lat="45.51297" lon="6.70703">
        <ele>2131.86</ele>
        <time>2016-02-17T11:20:29Z</time>
      </trkpt>
      <trkpt lat="45.51301" lon="6.70717">
        <ele>2133.78</ele>
        <time>2016-02-17T11:20:43Z</time>
      </trkpt>
      <trkpt lat="45.51308" lon="6.70734">
        <ele>2136.67</ele>
        <time>2016-02-17T11:20:58Z</time>
      </trkpt>
      <trkpt lat="45.51316" lon="6.70756">
        <ele>2139.07</ele>
        <time>2016-02-17T11:21:15Z</time>
      </trkpt>
      <trkpt lat="45.51319" lon="6.70759">
        <ele>2139.07</ele>
        <time>2016-02-17T11:21:19Z</time>
      </trkpt>
      <trkpt lat="45.51326" lon="6.70767">
        <ele>2140.51</ele>
        <time>2016-02-17T11:21:29Z</time>
      </trkpt>
      <trkpt lat="45.51331" lon="6.7077">
        <ele>2140.51</ele>
        <time>2016-02-17T11:21:33Z</time>
      </trkpt>
      <trkpt lat="45.51341" lon="6.70777">
        <ele>2140.51</ele>
        <time>2016-02-17T11:21:45Z</time>
      </trkpt>
      <trkpt lat="45.51344" lon="6.70778">
        <ele>2140.51</ele>
        <time>2016-02-17T11:22:02Z</time>
      </trkpt>
      <trkpt lat="45.51352" lon="6.70779">
        <ele>2141.95</ele>
        <time>2016-02-17T11:22:10Z</time>
      </trkpt>
      <trkpt lat="45.5137" lon="6.70776">
        <ele>2144.36</ele>
        <time>2016-02-17T11:22:26Z</time>
      </trkpt>
      <trkpt lat="45.51379" lon="6.70775">
        <ele>2145.32</ele>
        <time>2016-02-17T11:22:40Z</time>
      </trkpt>
      <trkpt lat="45.51382" lon="6.70775">
        <ele>2145.32</ele>
        <time>2016-02-17T11:22:53Z</time>
      </trkpt>
      <trkpt lat="45.51388" lon="6.70777">
        <ele>2146.28</ele>
        <time>2016-02-17T11:23:08Z</time>
      </trkpt>
      <trkpt lat="45.51401" lon="6.70783">
        <ele>2147.24</ele>
        <time>2016-02-17T11:23:22Z</time>
      </trkpt>
      <trkpt lat="45.51417" lon="6.70792">
        <ele>2145.8</ele>
        <time>2016-02-17T11:23:30Z</time>
      </trkpt>
      <trkpt lat="45.51428" lon="6.70798">
        <ele>2145.32</ele>
        <time>2016-02-17T11:23:36Z</time>
      </trkpt>
      <trkpt lat="45.5143" lon="6.70799">
        <ele>2145.32</ele>
        <time>2016-02-17T11:23:37Z</time>
      </trkpt>
      <trkpt lat="45.51432" lon="6.70799">
        <ele>2145.32</ele>
        <time>2016-02-17T11:23:38Z</time>
      </trkpt>
      <trkpt lat="45.51434" lon="6.70799">
        <ele>2144.84</ele>
        <time>2016-02-17T11:23:39Z</time>
      </trkpt>
      <trkpt lat="45.51435" lon="6.70798">
        <ele>2144.84</ele>
        <time>2016-02-17T11:23:40Z</time>
      </trkpt>
      <trkpt lat="45.51436" lon="6.70797">
        <ele>2144.84</ele>
        <time>2016-02-17T11:23:41Z</time>
      </trkpt>
      <trkpt lat="45.51438" lon="6.70797">
        <ele>2144.84</ele>
        <time>2016-02-17T11:23:42Z</time>
      </trkpt>
      <trkpt lat="45.5144" lon="6.70797">
        <ele>2144.84</ele>
        <time>2016-02-17T11:23:43Z</time>
      </trkpt>
      <trkpt lat="45.51441" lon="6.70797">
        <ele>2144.84</ele>
        <time>2016-02-17T11:23:44Z</time>
      </trkpt>
      <trkpt lat="45.51443" lon="6.70797">
        <ele>2144.84</ele>
        <time>2016-02-17T11:23:45Z</time>
      </trkpt>
      <trkpt lat="45.51444" lon="6.70796">
        <ele>2144.84</ele>
        <time>2016-02-17T11:23:46Z</time>
      </trkpt>
      <trkpt lat="45.51459" lon="6.70798">
        <ele>2144.36</ele>
        <time>2016-02-17T11:24:00Z</time>
      </trkpt>
      <trkpt lat="45.5147" lon="6.70795">
        <ele>2147.72</ele>
        <time>2016-02-17T11:24:12Z</time>
      </trkpt>
      <trkpt lat="45.51478" lon="6.70791">
        <ele>2149.65</ele>
        <time>2016-02-17T11:24:25Z</time>
      </trkpt>
      <trkpt lat="45.5149" lon="6.70783">
        <ele>2152.05</ele>
        <time>2016-02-17T11:24:40Z</time>
      </trkpt>
      <trkpt lat="45.51491" lon="6.70782">
        <ele>2152.05</ele>
        <time>2016-02-17T11:24:41Z</time>
      </trkpt>
      <trkpt lat="45.51492" lon="6.70781">
        <ele>2152.53</ele>
        <time>2016-02-17T11:24:42Z</time>
      </trkpt>
      <trkpt lat="45.51493" lon="6.7078">
        <ele>2152.53</ele>
        <time>2016-02-17T11:24:43Z</time>
      </trkpt>
      <trkpt lat="45.51493" lon="6.70779">
        <ele>2152.53</ele>
        <time>2016-02-17T11:24:44Z</time>
      </trkpt>
      <trkpt lat="45.51504" lon="6.70769">
        <ele>2154.45</ele>
        <time>2016-02-17T11:24:58Z</time>
      </trkpt>
      <trkpt lat="45.51517" lon="6.70757">
        <ele>2157.34</ele>
        <time>2016-02-17T11:25:15Z</time>
      </trkpt>
      <trkpt lat="45.51524" lon="6.70755">
        <ele>2159.26</ele>
        <time>2016-02-17T11:25:26Z</time>
      </trkpt>
      <trkpt lat="45.51527" lon="6.70756">
        <ele>2160.7</ele>
        <time>2016-02-17T11:25:31Z</time>
      </trkpt>
      <trkpt lat="45.51528" lon="6.70754">
        <ele>2160.7</ele>
        <time>2016-02-17T11:25:33Z</time>
      </trkpt>
      <trkpt lat="45.51534" lon="6.70746">
        <ele>2163.58</ele>
        <time>2016-02-17T11:25:46Z</time>
      </trkpt>
      <trkpt lat="45.51544" lon="6.70745">
        <ele>2165.99</ele>
        <time>2016-02-17T11:25:58Z</time>
      </trkpt>
      <trkpt lat="45.51545" lon="6.70745">
        <ele>2165.99</ele>
        <time>2016-02-17T11:25:59Z</time>
      </trkpt>
      <trkpt lat="45.5156" lon="6.70752">
        <ele>2168.39</ele>
        <time>2016-02-17T11:26:15Z</time>
      </trkpt>
      <trkpt lat="45.51562" lon="6.70752">
        <ele>2168.87</ele>
        <time>2016-02-17T11:26:18Z</time>
      </trkpt>
      <trkpt lat="45.5158" lon="6.70758">
        <ele>2170.31</ele>
        <time>2016-02-17T11:26:35Z</time>
      </trkpt>
      <trkpt lat="45.51584" lon="6.70758">
        <ele>2170.79</ele>
        <time>2016-02-17T11:26:39Z</time>
      </trkpt>
      <trkpt lat="45.51598" lon="6.70766">
        <ele>2171.76</ele>
        <time>2016-02-17T11:26:54Z</time>
      </trkpt>
      <trkpt lat="45.51605" lon="6.7077">
        <ele>2172.72</ele>
        <time>2016-02-17T11:27:02Z</time>
      </trkpt>
      <trkpt lat="45.51612" lon="6.70767">
        <ele>2174.16</ele>
        <time>2016-02-17T11:27:10Z</time>
      </trkpt>
      <trkpt lat="45.5162" lon="6.70763">
        <ele>2177.04</ele>
        <time>2016-02-17T11:27:21Z</time>
      </trkpt>
      <trkpt lat="45.51633" lon="6.70771">
        <ele>2179.45</ele>
        <time>2016-02-17T11:27:36Z</time>
      </trkpt>
      <trkpt lat="45.51649" lon="6.70785">
        <ele>2179.93</ele>
        <time>2016-02-17T11:27:52Z</time>
      </trkpt>
      <trkpt lat="45.51663" lon="6.70798">
        <ele>2180.41</ele>
        <time>2016-02-17T11:28:07Z</time>
      </trkpt>
      <trkpt lat="45.51678" lon="6.70809">
        <ele>2180.89</ele>
        <time>2016-02-17T11:28:21Z</time>
      </trkpt>
      <trkpt lat="45.51699" lon="6.70812">
        <ele>2180.89</ele>
        <time>2016-02-17T11:28:35Z</time>
      </trkpt>
      <trkpt lat="45.51704" lon="6.70813">
        <ele>2181.37</ele>
        <time>2016-02-17T11:28:40Z</time>
      </trkpt>
      <trkpt lat="45.51712" lon="6.70813">
        <ele>2182.33</ele>
        <time>2016-02-17T11:28:48Z</time>
      </trkpt>
      <trkpt lat="45.5172" lon="6.70813">
        <ele>2184.25</ele>
        <time>2016-02-17T11:28:57Z</time>
      </trkpt>
      <trkpt lat="45.51733" lon="6.70811">
        <ele>2186.18</ele>
        <time>2016-02-17T11:29:11Z</time>
      </trkpt>
      <trkpt lat="45.51748" lon="6.70811">
        <ele>2188.58</ele>
        <time>2016-02-17T11:29:26Z</time>
      </trkpt>
      <trkpt lat="45.51767" lon="6.70816">
        <ele>2190.02</ele>
        <time>2016-02-17T11:29:42Z</time>
      </trkpt>
      <trkpt lat="45.51782" lon="6.70821">
        <ele>2190.98</ele>
        <time>2016-02-17T11:29:57Z</time>
      </trkpt>
      <trkpt lat="45.51796" lon="6.70827">
        <ele>2190.98</ele>
        <time>2016-02-17T11:30:09Z</time>
      </trkpt>
      <trkpt lat="45.51813" lon="6.70832">
        <ele>2192.42</ele>
        <time>2016-02-17T11:30:23Z</time>
      </trkpt>
      <trkpt lat="45.51815" lon="6.70834">
        <ele>2192.9</ele>
        <time>2016-02-17T11:30:39Z</time>
      </trkpt>
      <trkpt lat="45.51818" lon="6.7083">
        <ele>2192.9</ele>
        <time>2016-02-17T11:30:46Z</time>
      </trkpt>
      <trkpt lat="45.51825" lon="6.70826">
        <ele>2193.87</ele>
        <time>2016-02-17T11:30:56Z</time>
      </trkpt>
      <trkpt lat="45.51838" lon="6.70825">
        <ele>2195.79</ele>
        <time>2016-02-17T11:31:10Z</time>
      </trkpt>
      <trkpt lat="45.51848" lon="6.70825">
        <ele>2198.67</ele>
        <time>2016-02-17T11:31:25Z</time>
      </trkpt>
      <trkpt lat="45.51859" lon="6.70826">
        <ele>2202.52</ele>
        <time>2016-02-17T11:31:42Z</time>
      </trkpt>
      <trkpt lat="45.51866" lon="6.70827">
        <ele>2204.44</ele>
        <time>2016-02-17T11:31:53Z</time>
      </trkpt>
      <trkpt lat="45.51876" lon="6.70827">
        <ele>2207.81</ele>
        <time>2016-02-17T11:32:06Z</time>
      </trkpt>
      <trkpt lat="45.51885" lon="6.70828">
        <ele>2211.17</ele>
        <time>2016-02-17T11:32:20Z</time>
      </trkpt>
      <trkpt lat="45.51898" lon="6.7083">
        <ele>2214.53</ele>
        <time>2016-02-17T11:32:36Z</time>
      </trkpt>
      <trkpt lat="45.51909" lon="6.70831">
        <ele>2217.42</ele>
        <time>2016-02-17T11:32:51Z</time>
      </trkpt>
      <trkpt lat="45.51921" lon="6.70833">
        <ele>2220.78</ele>
        <time>2016-02-17T11:33:07Z</time>
      </trkpt>
      <trkpt lat="45.51934" lon="6.70834">
        <ele>2223.19</ele>
        <time>2016-02-17T11:33:21Z</time>
      </trkpt>
      <trkpt lat="45.51938" lon="6.70834">
        <ele>2224.15</ele>
        <time>2016-02-17T11:33:25Z</time>
      </trkpt>
      <trkpt lat="45.51951" lon="6.70836">
        <ele>2227.51</ele>
        <time>2016-02-17T11:33:41Z</time>
      </trkpt>
      <trkpt lat="45.51966" lon="6.70834">
        <ele>2230.4</ele>
        <time>2016-02-17T11:33:57Z</time>
      </trkpt>
      <trkpt lat="45.51974" lon="6.70833">
        <ele>2231.84</ele>
        <time>2016-02-17T11:34:06Z</time>
      </trkpt>
      <trkpt lat="45.51985" lon="6.70829">
        <ele>2234.24</ele>
        <time>2016-02-17T11:34:21Z</time>
      </trkpt>
      <trkpt lat="45.51996" lon="6.70825">
        <ele>2237.61</ele>
        <time>2016-02-17T11:34:35Z</time>
      </trkpt>
      <trkpt lat="45.52005" lon="6.7082">
        <ele>2240.49</ele>
        <time>2016-02-17T11:34:49Z</time>
      </trkpt>
      <trkpt lat="45.52018" lon="6.70815">
        <ele>2243.85</ele>
        <time>2016-02-17T11:35:05Z</time>
      </trkpt>
      <trkpt lat="45.52026" lon="6.70809">
        <ele>2246.74</ele>
        <time>2016-02-17T11:35:19Z</time>
      </trkpt>
      <trkpt lat="45.52037" lon="6.70802">
        <ele>2249.62</ele>
        <time>2016-02-17T11:35:33Z</time>
      </trkpt>
      <trkpt lat="45.52048" lon="6.70794">
        <ele>2252.99</ele>
        <time>2016-02-17T11:35:49Z</time>
      </trkpt>
      <trkpt lat="45.52061" lon="6.70788">
        <ele>2256.35</ele>
        <time>2016-02-17T11:36:04Z</time>
      </trkpt>
      <trkpt lat="45.5207" lon="6.70782">
        <ele>2259.72</ele>
        <time>2016-02-17T11:36:19Z</time>
      </trkpt>
      <trkpt lat="45.52079" lon="6.70775">
        <ele>2263.08</ele>
        <time>2016-02-17T11:36:33Z</time>
      </trkpt>
      <trkpt lat="45.52087" lon="6.70767">
        <ele>2265.96</ele>
        <time>2016-02-17T11:36:47Z</time>
      </trkpt>
      <trkpt lat="45.52096" lon="6.70756">
        <ele>2268.85</ele>
        <time>2016-02-17T11:37:02Z</time>
      </trkpt>
      <trkpt lat="45.52103" lon="6.70746">
        <ele>2270.29</ele>
        <time>2016-02-17T11:37:14Z</time>
      </trkpt>
      <trkpt lat="45.5211" lon="6.70733">
        <ele>2273.17</ele>
        <time>2016-02-17T11:37:28Z</time>
      </trkpt>
      <trkpt lat="45.52112" lon="6.7073">
        <ele>2273.66</ele>
        <time>2016-02-17T11:37:31Z</time>
      </trkpt>
      <trkpt lat="45.52117" lon="6.70722">
        <ele>2275.1</ele>
        <time>2016-02-17T11:37:39Z</time>
      </trkpt>
      <trkpt lat="45.52126" lon="6.70708">
        <ele>2277.98</ele>
        <time>2016-02-17T11:37:56Z</time>
      </trkpt>
      <trkpt lat="45.52128" lon="6.70706">
        <ele>2278.46</ele>
        <time>2016-02-17T11:37:58Z</time>
      </trkpt>
      <trkpt lat="45.52136" lon="6.70693">
        <ele>2281.83</ele>
        <time>2016-02-17T11:38:13Z</time>
      </trkpt>
      <trkpt lat="45.52143" lon="6.70682">
        <ele>2283.75</ele>
        <time>2016-02-17T11:38:26Z</time>
      </trkpt>
      <trkpt lat="45.5215" lon="6.70673">
        <ele>2285.67</ele>
        <time>2016-02-17T11:38:37Z</time>
      </trkpt>
      <trkpt lat="45.52156" lon="6.70665">
        <ele>2287.59</ele>
        <time>2016-02-17T11:38:57Z</time>
      </trkpt>
      <trkpt lat="45.52163" lon="6.70657">
        <ele>2290.48</ele>
        <time>2016-02-17T11:39:07Z</time>
      </trkpt>
      <trkpt lat="45.52175" lon="6.70652">
        <ele>2291.92</ele>
        <time>2016-02-17T11:39:21Z</time>
      </trkpt>
      <trkpt lat="45.52182" lon="6.70645">
        <ele>2294.32</ele>
        <time>2016-02-17T11:39:36Z</time>
      </trkpt>
      <trkpt lat="45.5219" lon="6.70637">
        <ele>2296.25</ele>
        <time>2016-02-17T11:39:51Z</time>
      </trkpt>
      <trkpt lat="45.5221" lon="6.70617">
        <ele>2297.69</ele>
        <time>2016-02-17T11:40:11Z</time>
      </trkpt>
      <trkpt lat="45.52228" lon="6.70599">
        <ele>2298.17</ele>
        <time>2016-02-17T11:40:27Z</time>
      </trkpt>
      <trkpt lat="45.52242" lon="6.70586">
        <ele>2299.13</ele>
        <time>2016-02-17T11:40:41Z</time>
      </trkpt>
      <trkpt lat="45.52248" lon="6.70581">
        <ele>2299.61</ele>
        <time>2016-02-17T11:40:53Z</time>
      </trkpt>
      <trkpt lat="45.52254" lon="6.70575">
        <ele>2300.09</ele>
        <time>2016-02-17T11:41:06Z</time>
      </trkpt>
      <trkpt lat="45.52266" lon="6.7056">
        <ele>2302.49</ele>
        <time>2016-02-17T11:41:22Z</time>
      </trkpt>
      <trkpt lat="45.52276" lon="6.70547">
        <ele>2304.9</ele>
        <time>2016-02-17T11:41:37Z</time>
      </trkpt>
      <trkpt lat="45.52279" lon="6.70534">
        <ele>2307.78</ele>
        <time>2016-02-17T11:41:50Z</time>
      </trkpt>
      <trkpt lat="45.5228" lon="6.70523">
        <ele>2311.15</ele>
        <time>2016-02-17T11:42:05Z</time>
      </trkpt>
      <trkpt lat="45.52282" lon="6.70511">
        <ele>2314.51</ele>
        <time>2016-02-17T11:42:19Z</time>
      </trkpt>
      <trkpt lat="45.52285" lon="6.70496">
        <ele>2317.88</ele>
        <time>2016-02-17T11:42:35Z</time>
      </trkpt>
      <trkpt lat="45.52294" lon="6.70483">
        <ele>2320.76</ele>
        <time>2016-02-17T11:42:51Z</time>
      </trkpt>
      <trkpt lat="45.52303" lon="6.70473">
        <ele>2324.12</ele>
        <time>2016-02-17T11:43:06Z</time>
      </trkpt>
      <trkpt lat="45.52303" lon="6.7047">
        <ele>2324.12</ele>
        <time>2016-02-17T11:43:08Z</time>
      </trkpt>
      <trkpt lat="45.52301" lon="6.70462">
        <ele>2326.05</ele>
        <time>2016-02-17T11:43:21Z</time>
      </trkpt>
      <trkpt lat="45.52299" lon="6.70453">
        <ele>2327.49</ele>
        <time>2016-02-17T11:43:34Z</time>
      </trkpt>
      <trkpt lat="45.52299" lon="6.70444">
        <ele>2329.89</ele>
        <time>2016-02-17T11:43:46Z</time>
      </trkpt>
      <trkpt lat="45.52301" lon="6.70444">
        <ele>2330.37</ele>
        <time>2016-02-17T11:43:58Z</time>
      </trkpt>
      <trkpt lat="45.5231" lon="6.70442">
        <ele>2331.81</ele>
        <time>2016-02-17T11:44:09Z</time>
      </trkpt>
      <trkpt lat="45.52321" lon="6.70438">
        <ele>2335.18</ele>
        <time>2016-02-17T11:44:24Z</time>
      </trkpt>
      <trkpt lat="45.52334" lon="6.70437">
        <ele>2338.54</ele>
        <time>2016-02-17T11:44:40Z</time>
      </trkpt>
      <trkpt lat="45.52343" lon="6.70429">
        <ele>2341.91</ele>
        <time>2016-02-17T11:44:55Z</time>
      </trkpt>
      <trkpt lat="45.52344" lon="6.70427">
        <ele>2341.91</ele>
        <time>2016-02-17T11:44:56Z</time>
      </trkpt>
      <trkpt lat="45.52352" lon="6.70411">
        <ele>2345.27</ele>
        <time>2016-02-17T11:45:13Z</time>
      </trkpt>
      <trkpt lat="45.52362" lon="6.70393">
        <ele>2345.75</ele>
        <time>2016-02-17T11:45:28Z</time>
      </trkpt>
      <trkpt lat="45.52361" lon="6.70392">
        <ele>2346.23</ele>
        <time>2016-02-17T11:45:42Z</time>
      </trkpt>
      <trkpt lat="45.52362" lon="6.70392">
        <ele>2345.75</ele>
        <time>2016-02-17T11:46:04Z</time>
      </trkpt>
      <trkpt lat="45.52362" lon="6.7039">
        <ele>2345.75</ele>
        <time>2016-02-17T11:46:28Z</time>
      </trkpt>
      <trkpt lat="45.52362" lon="6.70391">
        <ele>2345.75</ele>
        <time>2016-02-17T11:46:47Z</time>
      </trkpt>
      <trkpt lat="45.52362" lon="6.70391">
        <ele>2345.75</ele>
        <time>2016-02-17T11:47:09Z</time>
      </trkpt>
      <trkpt lat="45.52362" lon="6.70389">
        <ele>2345.75</ele>
        <time>2016-02-17T11:47:32Z</time>
      </trkpt>
      <trkpt lat="45.52363" lon="6.7039">
        <ele>2345.75</ele>
        <time>2016-02-17T11:47:53Z</time>
      </trkpt>
      <trkpt lat="45.52363" lon="6.70391">
        <ele>2345.75</ele>
        <time>2016-02-17T11:48:07Z</time>
      </trkpt>
      <trkpt lat="45.52362" lon="6.70387">
        <ele>2345.75</ele>
        <time>2016-02-17T11:48:25Z</time>
      </trkpt>
      <trkpt lat="45.52361" lon="6.70388">
        <ele>2345.75</ele>
        <time>2016-02-17T11:48:48Z</time>
      </trkpt>
      <trkpt lat="45.52362" lon="6.7039">
        <ele>2345.75</ele>
        <time>2016-02-17T11:49:10Z</time>
      </trkpt>
      <trkpt lat="45.52362" lon="6.7039">
        <ele>2345.75</ele>
        <time>2016-02-17T11:49:12Z</time>
      </trkpt>
      <trkpt lat="45.52355" lon="6.70369">
        <ele>2347.68</ele>
        <time>2016-02-17T11:49:29Z</time>
      </trkpt>
      <trkpt lat="45.52349" lon="6.70352">
        <ele>2348.16</ele>
        <time>2016-02-17T11:49:42Z</time>
      </trkpt>
      <trkpt lat="45.52345" lon="6.7033">
        <ele>2345.75</ele>
        <time>2016-02-17T11:49:58Z</time>
      </trkpt>
      <trkpt lat="45.52344" lon="6.7031">
        <ele>2345.75</ele>
        <time>2016-02-17T11:50:11Z</time>
      </trkpt>
      <trkpt lat="45.52344" lon="6.70307">
        <ele>2347.2</ele>
        <time>2016-02-17T11:50:13Z</time>
      </trkpt>
      <trkpt lat="45.5234" lon="6.70288">
        <ele>2350.08</ele>
        <time>2016-02-17T11:50:28Z</time>
      </trkpt>
      <trkpt lat="45.52335" lon="6.70267">
        <ele>2352.48</ele>
        <time>2016-02-17T11:50:42Z</time>
      </trkpt>
      <trkpt lat="45.52336" lon="6.70261">
        <ele>2352.48</ele>
        <time>2016-02-17T11:50:57Z</time>
      </trkpt>
      <trkpt lat="45.52336" lon="6.70259">
        <ele>2352.48</ele>
        <time>2016-02-17T11:51:16Z</time>
      </trkpt>
      <trkpt lat="45.52336" lon="6.70259">
        <ele>2352.48</ele>
        <time>2016-02-17T11:51:17Z</time>
      </trkpt>
      <trkpt lat="45.52333" lon="6.70257">
        <ele>2352.96</ele>
        <time>2016-02-17T11:51:32Z</time>
      </trkpt>
      <trkpt lat="45.52333" lon="6.70259">
        <ele>2352.96</ele>
        <time>2016-02-17T11:51:46Z</time>
      </trkpt>
      <trkpt lat="45.52333" lon="6.70258">
        <ele>2352.96</ele>
        <time>2016-02-17T11:52:04Z</time>
      </trkpt>
      <trkpt lat="45.52332" lon="6.70259">
        <ele>2352.96</ele>
        <time>2016-02-17T11:52:17Z</time>
      </trkpt>
      <trkpt lat="45.52333" lon="6.70259">
        <ele>2352</ele>
        <time>2016-02-17T11:52:29Z</time>
      </trkpt>
      <trkpt lat="45.52333" lon="6.70259">
        <ele>2353.44</ele>
        <time>2016-02-17T11:52:56Z</time>
      </trkpt>
      <trkpt lat="45.52334" lon="6.70258">
        <ele>2352</ele>
        <time>2016-02-17T11:53:01Z</time>
      </trkpt>
      <trkpt lat="45.52333" lon="6.70258">
        <ele>2352.96</ele>
        <time>2016-02-17T11:53:11Z</time>
      </trkpt>
      <trkpt lat="45.52333" lon="6.70258">
        <ele>2351.52</ele>
        <time>2016-02-17T11:53:14Z</time>
      </trkpt>
      <trkpt lat="45.52333" lon="6.70257">
        <ele>2351.52</ele>
        <time>2016-02-17T11:53:35Z</time>
      </trkpt>
      <trkpt lat="45.52331" lon="6.7026">
        <ele>2351.52</ele>
        <time>2016-02-17T11:53:54Z</time>
      </trkpt>
      <trkpt lat="45.52333" lon="6.7026">
        <ele>2351.52</ele>
        <time>2016-02-17T11:54:14Z</time>
      </trkpt>
      <trkpt lat="45.52338" lon="6.70258">
        <ele>2351.52</ele>
        <time>2016-02-17T11:54:36Z</time>
      </trkpt>
      <trkpt lat="45.52335" lon="6.70261">
        <ele>2351.52</ele>
        <time>2016-02-17T11:55:04Z</time>
      </trkpt>
      <trkpt lat="45.52334" lon="6.7026">
        <ele>2351.52</ele>
        <time>2016-02-17T11:55:20Z</time>
      </trkpt>
      <trkpt lat="45.52333" lon="6.70258">
        <ele>2352.48</ele>
        <time>2016-02-17T11:55:35Z</time>
      </trkpt>
      <trkpt lat="45.52334" lon="6.70256">
        <ele>2351.04</ele>
        <time>2016-02-17T11:55:59Z</time>
      </trkpt>
      <trkpt lat="45.52335" lon="6.70258">
        <ele>2351.04</ele>
        <time>2016-02-17T11:56:24Z</time>
      </trkpt>
      <trkpt lat="45.52334" lon="6.70258">
        <ele>2351.04</ele>
        <time>2016-02-17T11:56:52Z</time>
      </trkpt>
      <trkpt lat="45.52333" lon="6.70257">
        <ele>2352.48</ele>
        <time>2016-02-17T11:57:07Z</time>
      </trkpt>
      <trkpt lat="45.52333" lon="6.70257">
        <ele>2351.52</ele>
        <time>2016-02-17T11:57:24Z</time>
      </trkpt>
      <trkpt lat="45.52334" lon="6.70258">
        <ele>2351.52</ele>
        <time>2016-02-17T11:57:44Z</time>
      </trkpt>
      <trkpt lat="45.52334" lon="6.70256">
        <ele>2351.52</ele>
        <time>2016-02-17T11:58:02Z</time>
      </trkpt>
      <trkpt lat="45.52333" lon="6.70256">
        <ele>2351.52</ele>
        <time>2016-02-17T11:58:25Z</time>
      </trkpt>
      <trkpt lat="45.52333" lon="6.70257">
        <ele>2350.08</ele>
        <time>2016-02-17T11:58:42Z</time>
      </trkpt>
      <trkpt lat="45.52333" lon="6.70258">
        <ele>2351.52</ele>
        <time>2016-02-17T11:58:45Z</time>
      </trkpt>
      <trkpt lat="45.52332" lon="6.70258">
        <ele>2351.52</ele>
        <time>2016-02-17T11:58:49Z</time>
      </trkpt>
      <trkpt lat="45.52331" lon="6.70259">
        <ele>2351.52</ele>
        <time>2016-02-17T11:59:18Z</time>
      </trkpt>
      <trkpt lat="45.52331" lon="6.70259">
        <ele>2351.04</ele>
        <time>2016-02-17T11:59:42Z</time>
      </trkpt>
      <trkpt lat="45.52333" lon="6.70259">
        <ele>2348.64</ele>
        <time>2016-02-17T12:00:13Z</time>
      </trkpt>
      <trkpt lat="45.52331" lon="6.70259">
        <ele>2351.04</ele>
        <time>2016-02-17T12:00:27Z</time>
      </trkpt>
      <trkpt lat="45.52331" lon="6.70259">
        <ele>2349.12</ele>
        <time>2016-02-17T12:00:35Z</time>
      </trkpt>
      <trkpt lat="45.52331" lon="6.70259">
        <ele>2351.04</ele>
        <time>2016-02-17T12:00:38Z</time>
      </trkpt>
      <trkpt lat="45.52331" lon="6.70259">
        <ele>2350.08</ele>
        <time>2016-02-17T12:00:40Z</time>
      </trkpt>
      <trkpt lat="45.52334" lon="6.70257">
        <ele>2349.12</ele>
        <time>2016-02-17T12:01:02Z</time>
      </trkpt>
      <trkpt lat="45.52333" lon="6.70257">
        <ele>2350.56</ele>
        <time>2016-02-17T12:01:08Z</time>
      </trkpt>
      <trkpt lat="45.52333" lon="6.70256">
        <ele>2350.56</ele>
        <time>2016-02-17T12:01:34Z</time>
      </trkpt>
      <trkpt lat="45.52332" lon="6.70254">
        <ele>2350.56</ele>
        <time>2016-02-17T12:01:55Z</time>
      </trkpt>
      <trkpt lat="45.52333" lon="6.70258">
        <ele>2350.56</ele>
        <time>2016-02-17T12:02:22Z</time>
      </trkpt>
      <trkpt lat="45.52331" lon="6.70255">
        <ele>2350.56</ele>
        <time>2016-02-17T12:02:39Z</time>
      </trkpt>
      <trkpt lat="45.52329" lon="6.7025">
        <ele>2349.6</ele>
        <time>2016-02-17T12:02:57Z</time>
      </trkpt>
      <trkpt lat="45.52324" lon="6.70244">
        <ele>2348.64</ele>
        <time>2016-02-17T12:03:12Z</time>
      </trkpt>
      <trkpt lat="45.52325" lon="6.70244">
        <ele>2349.6</ele>
        <time>2016-02-17T12:03:27Z</time>
      </trkpt>
      <trkpt lat="45.52324" lon="6.70245">
        <ele>2349.6</ele>
        <time>2016-02-17T12:03:56Z</time>
      </trkpt>
      <trkpt lat="45.52323" lon="6.70244">
        <ele>2348.16</ele>
        <time>2016-02-17T12:04:15Z</time>
      </trkpt>
      <trkpt lat="45.52325" lon="6.70243">
        <ele>2347.68</ele>
        <time>2016-02-17T12:04:37Z</time>
      </trkpt>
      <trkpt lat="45.52322" lon="6.70244">
        <ele>2349.12</ele>
        <time>2016-02-17T12:05:00Z</time>
      </trkpt>
      <trkpt lat="45.52327" lon="6.70247">
        <ele>2347.68</ele>
        <time>2016-02-17T12:05:18Z</time>
      </trkpt>
      <trkpt lat="45.52326" lon="6.70245">
        <ele>2349.12</ele>
        <time>2016-02-17T12:05:45Z</time>
      </trkpt>
      <trkpt lat="45.52325" lon="6.70245">
        <ele>2349.12</ele>
        <time>2016-02-17T12:06:14Z</time>
      </trkpt>
      <trkpt lat="45.52325" lon="6.70246">
        <ele>2349.12</ele>
        <time>2016-02-17T12:06:32Z</time>
      </trkpt>
      <trkpt lat="45.52326" lon="6.70245">
        <ele>2348.64</ele>
        <time>2016-02-17T12:07:04Z</time>
      </trkpt>
      <trkpt lat="45.5233" lon="6.70238">
        <ele>2348.64</ele>
        <time>2016-02-17T12:07:32Z</time>
      </trkpt>
      <trkpt lat="45.52328" lon="6.70239">
        <ele>2349.12</ele>
        <time>2016-02-17T12:07:54Z</time>
      </trkpt>
      <trkpt lat="45.52328" lon="6.70232">
        <ele>2346.72</ele>
        <time>2016-02-17T12:07:57Z</time>
      </trkpt>
      <trkpt lat="45.52331" lon="6.7023">
        <ele>2342.87</ele>
        <time>2016-02-17T12:07:58Z</time>
      </trkpt>
      <trkpt lat="45.52333" lon="6.70231">
        <ele>2344.31</ele>
        <time>2016-02-17T12:07:59Z</time>
      </trkpt>
      <trkpt lat="45.52333" lon="6.70232">
        <ele>2341.91</ele>
        <time>2016-02-17T12:08:01Z</time>
      </trkpt>
      <trkpt lat="45.52337" lon="6.70221">
        <ele>2338.06</ele>
        <time>2016-02-17T12:08:05Z</time>
      </trkpt>
      <trkpt lat="45.52339" lon="6.70218">
        <ele>2333.26</ele>
        <time>2016-02-17T12:08:06Z</time>
      </trkpt>
      <trkpt lat="45.52342" lon="6.70218">
        <ele>2335.66</ele>
        <time>2016-02-17T12:08:07Z</time>
      </trkpt>
      <trkpt lat="45.52345" lon="6.70221">
        <ele>2332.3</ele>
        <time>2016-02-17T12:08:09Z</time>
      </trkpt>
      <trkpt lat="45.52348" lon="6.70216">
        <ele>2330.85</ele>
        <time>2016-02-17T12:08:12Z</time>
      </trkpt>
      <trkpt lat="45.52346" lon="6.70211">
        <ele>2327.01</ele>
        <time>2016-02-17T12:08:13Z</time>
      </trkpt>
      <trkpt lat="45.52346" lon="6.70207">
        <ele>2325.57</ele>
        <time>2016-02-17T12:08:14Z</time>
      </trkpt>
      <trkpt lat="45.52352" lon="6.70202">
        <ele>2321.24</ele>
        <time>2016-02-17T12:08:16Z</time>
      </trkpt>
      <trkpt lat="45.52356" lon="6.70199">
        <ele>2321.24</ele>
        <time>2016-02-17T12:08:17Z</time>
      </trkpt>
      <trkpt lat="45.52359" lon="6.70196">
        <ele>2317.88</ele>
        <time>2016-02-17T12:08:18Z</time>
      </trkpt>
      <trkpt lat="45.52362" lon="6.70191">
        <ele>2315.47</ele>
        <time>2016-02-17T12:08:19Z</time>
      </trkpt>
      <trkpt lat="45.5236" lon="6.70174">
        <ele>2314.03</ele>
        <time>2016-02-17T12:08:21Z</time>
      </trkpt>
      <trkpt lat="45.52363" lon="6.70157">
        <ele>2312.11</ele>
        <time>2016-02-17T12:08:24Z</time>
      </trkpt>
      <trkpt lat="45.52367" lon="6.70147">
        <ele>2310.67</ele>
        <time>2016-02-17T12:08:27Z</time>
      </trkpt>
      <trkpt lat="45.52369" lon="6.70142">
        <ele>2309.22</ele>
        <time>2016-02-17T12:08:29Z</time>
      </trkpt>
      <trkpt lat="45.5237" lon="6.7014">
        <ele>2304.42</ele>
        <time>2016-02-17T12:08:30Z</time>
      </trkpt>
      <trkpt lat="45.52375" lon="6.70139">
        <ele>2301.53</ele>
        <time>2016-02-17T12:08:32Z</time>
      </trkpt>
      <trkpt lat="45.52379" lon="6.70134">
        <ele>2291.92</ele>
        <time>2016-02-17T12:08:33Z</time>
      </trkpt>
      <trkpt lat="45.52384" lon="6.70131">
        <ele>2298.65</ele>
        <time>2016-02-17T12:08:35Z</time>
      </trkpt>
      <trkpt lat="45.5239" lon="6.70129">
        <ele>2292.4</ele>
        <time>2016-02-17T12:08:36Z</time>
      </trkpt>
      <trkpt lat="45.52393" lon="6.70126">
        <ele>2289.04</ele>
        <time>2016-02-17T12:08:37Z</time>
      </trkpt>
      <trkpt lat="45.52394" lon="6.70125">
        <ele>2289.04</ele>
        <time>2016-02-17T12:08:38Z</time>
      </trkpt>
      <trkpt lat="45.52389" lon="6.7013">
        <ele>2289.52</ele>
        <time>2016-02-17T12:08:58Z</time>
      </trkpt>
      <trkpt lat="45.52383" lon="6.70133">
        <ele>2290</ele>
        <time>2016-02-17T12:09:26Z</time>
      </trkpt>
      <trkpt lat="45.52384" lon="6.70133">
        <ele>2290</ele>
        <time>2016-02-17T12:09:28Z</time>
      </trkpt>
      <trkpt lat="45.52395" lon="6.70136">
        <ele>2286.63</ele>
        <time>2016-02-17T12:09:32Z</time>
      </trkpt>
      <trkpt lat="45.52395" lon="6.70142">
        <ele>2280.38</ele>
        <time>2016-02-17T12:09:34Z</time>
      </trkpt>
      <trkpt lat="45.52396" lon="6.70144">
        <ele>2284.71</ele>
        <time>2016-02-17T12:09:35Z</time>
      </trkpt>
      <trkpt lat="45.52398" lon="6.70143">
        <ele>2280.87</ele>
        <time>2016-02-17T12:09:36Z</time>
      </trkpt>
      <trkpt lat="45.52404" lon="6.70145">
        <ele>2277.02</ele>
        <time>2016-02-17T12:09:38Z</time>
      </trkpt>
      <trkpt lat="45.52406" lon="6.70149">
        <ele>2277.02</ele>
        <time>2016-02-17T12:09:39Z</time>
      </trkpt>
      <trkpt lat="45.5241" lon="6.70152">
        <ele>2274.14</ele>
        <time>2016-02-17T12:09:40Z</time>
      </trkpt>
      <trkpt lat="45.5242" lon="6.70153">
        <ele>2268.37</ele>
        <time>2016-02-17T12:09:42Z</time>
      </trkpt>
      <trkpt lat="45.52425" lon="6.70153">
        <ele>2269.81</ele>
        <time>2016-02-17T12:09:43Z</time>
      </trkpt>
      <trkpt lat="45.5243" lon="6.70153">
        <ele>2266.45</ele>
        <time>2016-02-17T12:09:44Z</time>
      </trkpt>
      <trkpt lat="45.52442" lon="6.70165">
        <ele>2260.68</ele>
        <time>2016-02-17T12:09:47Z</time>
      </trkpt>
      <trkpt lat="45.52443" lon="6.7016">
        <ele>2257.31</ele>
        <time>2016-02-17T12:09:48Z</time>
      </trkpt>
      <trkpt lat="45.52446" lon="6.70156">
        <ele>2255.39</ele>
        <time>2016-02-17T12:09:50Z</time>
      </trkpt>
      <trkpt lat="45.5245" lon="6.70151">
        <ele>2250.58</ele>
        <time>2016-02-17T12:09:52Z</time>
      </trkpt>
      <trkpt lat="45.52453" lon="6.70148">
        <ele>2244.82</ele>
        <time>2016-02-17T12:09:53Z</time>
      </trkpt>
      <trkpt lat="45.5246" lon="6.70146">
        <ele>2243.37</ele>
        <time>2016-02-17T12:09:55Z</time>
      </trkpt>
      <trkpt lat="45.52467" lon="6.70141">
        <ele>2238.57</ele>
        <time>2016-02-17T12:09:57Z</time>
      </trkpt>
      <trkpt lat="45.52473" lon="6.70142">
        <ele>2236.16</ele>
        <time>2016-02-17T12:09:58Z</time>
      </trkpt>
      <trkpt lat="45.52479" lon="6.70143">
        <ele>2233.76</ele>
        <time>2016-02-17T12:09:59Z</time>
      </trkpt>
      <trkpt lat="45.52491" lon="6.70143">
        <ele>2230.88</ele>
        <time>2016-02-17T12:10:01Z</time>
      </trkpt>
      <trkpt lat="45.52496" lon="6.70141">
        <ele>2225.59</ele>
        <time>2016-02-17T12:10:02Z</time>
      </trkpt>
      <trkpt lat="45.52502" lon="6.7014">
        <ele>2221.74</ele>
        <time>2016-02-17T12:10:03Z</time>
      </trkpt>
      <trkpt lat="45.52507" lon="6.7014">
        <ele>2221.74</ele>
        <time>2016-02-17T12:10:04Z</time>
      </trkpt>
      <trkpt lat="45.52523" lon="6.70138">
        <ele>2212.61</ele>
        <time>2016-02-17T12:10:07Z</time>
      </trkpt>
      <trkpt lat="45.52522" lon="6.70136">
        <ele>2208.29</ele>
        <time>2016-02-17T12:10:15Z</time>
      </trkpt>
      <trkpt lat="45.52521" lon="6.70137">
        <ele>2211.65</ele>
        <time>2016-02-17T12:10:16Z</time>
      </trkpt>
      <trkpt lat="45.52502" lon="6.70147">
        <ele>2210.21</ele>
        <time>2016-02-17T12:10:43Z</time>
      </trkpt>
      <trkpt lat="45.52501" lon="6.70149">
        <ele>2211.17</ele>
        <time>2016-02-17T12:10:51Z</time>
      </trkpt>
      <trkpt lat="45.52499" lon="6.70143">
        <ele>2208.29</ele>
        <time>2016-02-17T12:10:55Z</time>
      </trkpt>
      <trkpt lat="45.52495" lon="6.70137">
        <ele>2207.81</ele>
        <time>2016-02-17T12:10:58Z</time>
      </trkpt>
      <trkpt lat="45.52487" lon="6.70114">
        <ele>2203.48</ele>
        <time>2016-02-17T12:11:05Z</time>
      </trkpt>
      <trkpt lat="45.52502" lon="6.70122">
        <ele>2195.79</ele>
        <time>2016-02-17T12:11:09Z</time>
      </trkpt>
      <trkpt lat="45.52504" lon="6.70127">
        <ele>2194.83</ele>
        <time>2016-02-17T12:11:10Z</time>
      </trkpt>
      <trkpt lat="45.52512" lon="6.70143">
        <ele>2191.46</ele>
        <time>2016-02-17T12:11:14Z</time>
      </trkpt>
      <trkpt lat="45.52519" lon="6.70151">
        <ele>2191.46</ele>
        <time>2016-02-17T12:11:16Z</time>
      </trkpt>
      <trkpt lat="45.52522" lon="6.70149">
        <ele>2186.18</ele>
        <time>2016-02-17T12:11:17Z</time>
      </trkpt>
      <trkpt lat="45.52525" lon="6.70144">
        <ele>2184.73</ele>
        <time>2016-02-17T12:11:18Z</time>
      </trkpt>
      <trkpt lat="45.52532" lon="6.70139">
        <ele>2183.77</ele>
        <time>2016-02-17T12:11:20Z</time>
      </trkpt>
      <trkpt lat="45.52541" lon="6.70128">
        <ele>2170.79</ele>
        <time>2016-02-17T12:11:23Z</time>
      </trkpt>
      <trkpt lat="45.52544" lon="6.70126">
        <ele>2172.24</ele>
        <time>2016-02-17T12:11:24Z</time>
      </trkpt>
      <trkpt lat="45.52547" lon="6.70121">
        <ele>2168.39</ele>
        <time>2016-02-17T12:11:25Z</time>
      </trkpt>
      <trkpt lat="45.52557" lon="6.70118">
        <ele>2163.58</ele>
        <time>2016-02-17T12:11:27Z</time>
      </trkpt>
      <trkpt lat="45.52564" lon="6.70109">
        <ele>2157.34</ele>
        <time>2016-02-17T12:11:29Z</time>
      </trkpt>
      <trkpt lat="45.52576" lon="6.70104">
        <ele>2151.57</ele>
        <time>2016-02-17T12:11:32Z</time>
      </trkpt>
      <trkpt lat="45.52579" lon="6.70099">
        <ele>2147.24</ele>
        <time>2016-02-17T12:11:33Z</time>
      </trkpt>
      <trkpt lat="45.52586" lon="6.70082">
        <ele>2143.4</ele>
        <time>2016-02-17T12:11:36Z</time>
      </trkpt>
      <trkpt lat="45.52585" lon="6.70076">
        <ele>2142.44</ele>
        <time>2016-02-17T12:11:37Z</time>
      </trkpt>
      <trkpt lat="45.52579" lon="6.70056">
        <ele>2140.99</ele>
        <time>2016-02-17T12:11:41Z</time>
      </trkpt>
      <trkpt lat="45.52562" lon="6.70016">
        <ele>2137.63</ele>
        <time>2016-02-17T12:11:52Z</time>
      </trkpt>
      <trkpt lat="45.52557" lon="6.69995">
        <ele>2135.23</ele>
        <time>2016-02-17T12:12:00Z</time>
      </trkpt>
      <trkpt lat="45.52558" lon="6.69999">
        <ele>2136.19</ele>
        <time>2016-02-17T12:12:34Z</time>
      </trkpt>
      <trkpt lat="45.52558" lon="6.70003">
        <ele>2134.74</ele>
        <time>2016-02-17T12:13:03Z</time>
      </trkpt>
      <trkpt lat="45.52558" lon="6.70002">
        <ele>2136.67</ele>
        <time>2016-02-17T12:13:13Z</time>
      </trkpt>
      <trkpt lat="45.52558" lon="6.70001">
        <ele>2135.23</ele>
        <time>2016-02-17T12:13:15Z</time>
      </trkpt>
      <trkpt lat="45.52557" lon="6.69997">
        <ele>2135.23</ele>
        <time>2016-02-17T12:13:38Z</time>
      </trkpt>
      <trkpt lat="45.52562" lon="6.69989">
        <ele>2131.86</ele>
        <time>2016-02-17T12:13:41Z</time>
      </trkpt>
      <trkpt lat="45.52566" lon="6.69988">
        <ele>2127.05</ele>
        <time>2016-02-17T12:13:42Z</time>
      </trkpt>
      <trkpt lat="45.52571" lon="6.69988">
        <ele>2131.38</ele>
        <time>2016-02-17T12:13:43Z</time>
      </trkpt>
      <trkpt lat="45.52575" lon="6.69984">
        <ele>2125.61</ele>
        <time>2016-02-17T12:13:44Z</time>
      </trkpt>
      <trkpt lat="45.52576" lon="6.69977">
        <ele>2122.25</ele>
        <time>2016-02-17T12:13:45Z</time>
      </trkpt>
      <trkpt lat="45.52585" lon="6.69961">
        <ele>2114.56</ele>
        <time>2016-02-17T12:13:48Z</time>
      </trkpt>
      <trkpt lat="45.52595" lon="6.69954">
        <ele>2111.19</ele>
        <time>2016-02-17T12:13:50Z</time>
      </trkpt>
      <trkpt lat="45.52598" lon="6.69949">
        <ele>2107.83</ele>
        <time>2016-02-17T12:13:51Z</time>
      </trkpt>
      <trkpt lat="45.52597" lon="6.69937">
        <ele>2104.46</ele>
        <time>2016-02-17T12:13:53Z</time>
      </trkpt>
      <trkpt lat="45.52596" lon="6.69929">
        <ele>2102.06</ele>
        <time>2016-02-17T12:13:54Z</time>
      </trkpt>
      <trkpt lat="45.5259" lon="6.69901">
        <ele>2097.73</ele>
        <time>2016-02-17T12:13:57Z</time>
      </trkpt>
      <trkpt lat="45.52588" lon="6.69879">
        <ele>2095.33</ele>
        <time>2016-02-17T12:13:59Z</time>
      </trkpt>
      <trkpt lat="45.52588" lon="6.69852">
        <ele>2092.45</ele>
        <time>2016-02-17T12:14:02Z</time>
      </trkpt>
      <trkpt lat="45.52588" lon="6.69832">
        <ele>2087.64</ele>
        <time>2016-02-17T12:14:04Z</time>
      </trkpt>
      <trkpt lat="45.52587" lon="6.69809">
        <ele>2086.2</ele>
        <time>2016-02-17T12:14:06Z</time>
      </trkpt>
      <trkpt lat="45.52587" lon="6.69786">
        <ele>2083.31</ele>
        <time>2016-02-17T12:14:08Z</time>
      </trkpt>
      <trkpt lat="45.52588" lon="6.69776">
        <ele>2081.39</ele>
        <time>2016-02-17T12:14:09Z</time>
      </trkpt>
      <trkpt lat="45.52596" lon="6.69743">
        <ele>2077.55</ele>
        <time>2016-02-17T12:14:12Z</time>
      </trkpt>
      <trkpt lat="45.52603" lon="6.69723">
        <ele>2075.14</ele>
        <time>2016-02-17T12:14:14Z</time>
      </trkpt>
      <trkpt lat="45.52614" lon="6.69713">
        <ele>2077.55</ele>
        <time>2016-02-17T12:14:20Z</time>
      </trkpt>
      <trkpt lat="45.52613" lon="6.69713">
        <ele>2077.55</ele>
        <time>2016-02-17T12:14:21Z</time>
      </trkpt>
      <trkpt lat="45.52606" lon="6.69721">
        <ele>2077.55</ele>
        <time>2016-02-17T12:14:46Z</time>
      </trkpt>
      <trkpt lat="45.52606" lon="6.69725">
        <ele>2075.62</ele>
        <time>2016-02-17T12:14:50Z</time>
      </trkpt>
      <trkpt lat="45.52604" lon="6.69735">
        <ele>2073.22</ele>
        <time>2016-02-17T12:14:53Z</time>
      </trkpt>
      <trkpt lat="45.52604" lon="6.69749">
        <ele>2072.26</ele>
        <time>2016-02-17T12:14:55Z</time>
      </trkpt>
      <trkpt lat="45.52605" lon="6.69751">
        <ele>2068.89</ele>
        <time>2016-02-17T12:14:56Z</time>
      </trkpt>
      <trkpt lat="45.5261" lon="6.69743">
        <ele>2066.01</ele>
        <time>2016-02-17T12:14:59Z</time>
      </trkpt>
      <trkpt lat="45.52615" lon="6.69744">
        <ele>2062.65</ele>
        <time>2016-02-17T12:15:00Z</time>
      </trkpt>
      <trkpt lat="45.52619" lon="6.69746">
        <ele>2062.65</ele>
        <time>2016-02-17T12:15:01Z</time>
      </trkpt>
      <trkpt lat="45.52623" lon="6.69751">
        <ele>2057.36</ele>
        <time>2016-02-17T12:15:02Z</time>
      </trkpt>
      <trkpt lat="45.52628" lon="6.69754">
        <ele>2060.72</ele>
        <time>2016-02-17T12:15:03Z</time>
      </trkpt>
      <trkpt lat="45.52633" lon="6.69753">
        <ele>2055.44</ele>
        <time>2016-02-17T12:15:04Z</time>
      </trkpt>
      <trkpt lat="45.52635" lon="6.69747">
        <ele>2052.55</ele>
        <time>2016-02-17T12:15:06Z</time>
      </trkpt>
      <trkpt lat="45.52634" lon="6.69746">
        <ele>2052.55</ele>
        <time>2016-02-17T12:15:07Z</time>
      </trkpt>
      <trkpt lat="45.52634" lon="6.69743">
        <ele>2052.55</ele>
        <time>2016-02-17T12:15:12Z</time>
      </trkpt>
      <trkpt lat="45.52639" lon="6.69735">
        <ele>2048.23</ele>
        <time>2016-02-17T12:15:16Z</time>
      </trkpt>
      <trkpt lat="45.52644" lon="6.69736">
        <ele>2044.38</ele>
        <time>2016-02-17T12:15:18Z</time>
      </trkpt>
      <trkpt lat="45.52647" lon="6.69737">
        <ele>2044.38</ele>
        <time>2016-02-17T12:15:19Z</time>
      </trkpt>
      <trkpt lat="45.5265" lon="6.69736">
        <ele>2040.54</ele>
        <time>2016-02-17T12:15:20Z</time>
      </trkpt>
      <trkpt lat="45.52653" lon="6.69733">
        <ele>2038.13</ele>
        <time>2016-02-17T12:15:23Z</time>
      </trkpt>
      <trkpt lat="45.52654" lon="6.69732">
        <ele>2036.69</ele>
        <time>2016-02-17T12:15:25Z</time>
      </trkpt>
      <trkpt lat="45.52653" lon="6.6973">
        <ele>2035.73</ele>
        <time>2016-02-17T12:15:27Z</time>
      </trkpt>
      <trkpt lat="45.52654" lon="6.69718">
        <ele>2030.44</ele>
        <time>2016-02-17T12:15:30Z</time>
      </trkpt>
      <trkpt lat="45.52661" lon="6.69714">
        <ele>2026.6</ele>
        <time>2016-02-17T12:15:32Z</time>
      </trkpt>
      <trkpt lat="45.52672" lon="6.6972">
        <ele>2023.23</ele>
        <time>2016-02-17T12:15:35Z</time>
      </trkpt>
      <trkpt lat="45.52675" lon="6.69716">
        <ele>2019.87</ele>
        <time>2016-02-17T12:15:37Z</time>
      </trkpt>
      <trkpt lat="45.52673" lon="6.69705">
        <ele>2016.02</ele>
        <time>2016-02-17T12:15:40Z</time>
      </trkpt>
      <trkpt lat="45.52674" lon="6.69702">
        <ele>2011.22</ele>
        <time>2016-02-17T12:15:41Z</time>
      </trkpt>
      <trkpt lat="45.52677" lon="6.697">
        <ele>2016.02</ele>
        <time>2016-02-17T12:15:42Z</time>
      </trkpt>
      <trkpt lat="45.52679" lon="6.69696">
        <ele>2010.25</ele>
        <time>2016-02-17T12:15:43Z</time>
      </trkpt>
      <trkpt lat="45.52682" lon="6.69692">
        <ele>2006.89</ele>
        <time>2016-02-17T12:15:44Z</time>
      </trkpt>
      <trkpt lat="45.52693" lon="6.69692">
        <ele>2002.08</ele>
        <time>2016-02-17T12:15:47Z</time>
      </trkpt>
      <trkpt lat="45.52696" lon="6.69689">
        <ele>1998.24</ele>
        <time>2016-02-17T12:15:51Z</time>
      </trkpt>
      <trkpt lat="45.52695" lon="6.69688">
        <ele>1995.83</ele>
        <time>2016-02-17T12:15:53Z</time>
      </trkpt>
      <trkpt lat="45.52696" lon="6.69685">
        <ele>1992.95</ele>
        <time>2016-02-17T12:15:56Z</time>
      </trkpt>
      <trkpt lat="45.52697" lon="6.69682">
        <ele>1992.47</ele>
        <time>2016-02-17T12:15:57Z</time>
      </trkpt>
      <trkpt lat="45.52703" lon="6.69684">
        <ele>1990.07</ele>
        <time>2016-02-17T12:16:04Z</time>
      </trkpt>
      <trkpt lat="45.52708" lon="6.69689">
        <ele>1987.18</ele>
        <time>2016-02-17T12:16:07Z</time>
      </trkpt>
      <trkpt lat="45.52712" lon="6.69693">
        <ele>1983.82</ele>
        <time>2016-02-17T12:16:08Z</time>
      </trkpt>
      <trkpt lat="45.5272" lon="6.69707">
        <ele>1982.38</ele>
        <time>2016-02-17T12:16:14Z</time>
      </trkpt>
      <trkpt lat="45.52723" lon="6.69713">
        <ele>1980.93</ele>
        <time>2016-02-17T12:16:17Z</time>
      </trkpt>
      <trkpt lat="45.52729" lon="6.6972">
        <ele>1979.49</ele>
        <time>2016-02-17T12:16:28Z</time>
      </trkpt>
      <trkpt lat="45.5273" lon="6.6972">
        <ele>1979.49</ele>
        <time>2016-02-17T12:16:29Z</time>
      </trkpt>
      <trkpt lat="45.52733" lon="6.69721">
        <ele>1979.49</ele>
        <time>2016-02-17T12:16:38Z</time>
      </trkpt>
      <trkpt lat="45.52737" lon="6.6972">
        <ele>1979.49</ele>
        <time>2016-02-17T12:16:45Z</time>
      </trkpt>
      <trkpt lat="45.52743" lon="6.69722">
        <ele>1979.01</ele>
        <time>2016-02-17T12:17:09Z</time>
      </trkpt>
      <trkpt lat="45.52744" lon="6.69721">
        <ele>1980.45</ele>
        <time>2016-02-17T12:17:13Z</time>
      </trkpt>
      <trkpt lat="45.52745" lon="6.69721">
        <ele>1978.53</ele>
        <time>2016-02-17T12:17:16Z</time>
      </trkpt>
      <trkpt lat="45.52747" lon="6.69721">
        <ele>1978.53</ele>
        <time>2016-02-17T12:17:18Z</time>
      </trkpt>
      <trkpt lat="45.52757" lon="6.69715">
        <ele>1972.76</ele>
        <time>2016-02-17T12:17:22Z</time>
      </trkpt>
      <trkpt lat="45.52761" lon="6.69711">
        <ele>1969.4</ele>
        <time>2016-02-17T12:17:23Z</time>
      </trkpt>
      <trkpt lat="45.52771" lon="6.69699">
        <ele>1965.07</ele>
        <time>2016-02-17T12:17:26Z</time>
      </trkpt>
      <trkpt lat="45.52771" lon="6.69694">
        <ele>1961.71</ele>
        <time>2016-02-17T12:17:27Z</time>
      </trkpt>
      <trkpt lat="45.52774" lon="6.69687">
        <ele>1957.38</ele>
        <time>2016-02-17T12:17:29Z</time>
      </trkpt>
      <trkpt lat="45.52778" lon="6.69685">
        <ele>1953.06</ele>
        <time>2016-02-17T12:17:30Z</time>
      </trkpt>
      <trkpt lat="45.52781" lon="6.69684">
        <ele>1951.61</ele>
        <time>2016-02-17T12:17:31Z</time>
      </trkpt>
      <trkpt lat="45.52786" lon="6.6968">
        <ele>1947.29</ele>
        <time>2016-02-17T12:17:33Z</time>
      </trkpt>
      <trkpt lat="45.5279" lon="6.69676">
        <ele>1947.29</ele>
        <time>2016-02-17T12:17:34Z</time>
      </trkpt>
      <trkpt lat="45.52793" lon="6.6967">
        <ele>1942.96</ele>
        <time>2016-02-17T12:17:35Z</time>
      </trkpt>
      <trkpt lat="45.52796" lon="6.69664">
        <ele>1942.96</ele>
        <time>2016-02-17T12:17:36Z</time>
      </trkpt>
      <trkpt lat="45.52799" lon="6.69656">
        <ele>1939.12</ele>
        <time>2016-02-17T12:17:37Z</time>
      </trkpt>
      <trkpt lat="45.52805" lon="6.69645">
        <ele>1938.64</ele>
        <time>2016-02-17T12:17:39Z</time>
      </trkpt>
      <trkpt lat="45.52807" lon="6.69623">
        <ele>1937.67</ele>
        <time>2016-02-17T12:17:47Z</time>
      </trkpt>
      <trkpt lat="45.52806" lon="6.69619">
        <ele>1937.19</ele>
        <time>2016-02-17T12:18:05Z</time>
      </trkpt>
      <trkpt lat="45.52806" lon="6.69618">
        <ele>1938.64</ele>
        <time>2016-02-17T12:18:08Z</time>
      </trkpt>
      <trkpt lat="45.52805" lon="6.69615">
        <ele>1938.64</ele>
        <time>2016-02-17T12:18:11Z</time>
      </trkpt>
      <trkpt lat="45.52804" lon="6.69611">
        <ele>1937.19</ele>
        <time>2016-02-17T12:18:13Z</time>
      </trkpt>
      <trkpt lat="45.52804" lon="6.69593">
        <ele>1934.31</ele>
        <time>2016-02-17T12:18:16Z</time>
      </trkpt>
      <trkpt lat="45.52809" lon="6.69573">
        <ele>1933.83</ele>
        <time>2016-02-17T12:18:20Z</time>
      </trkpt>
      <trkpt lat="45.5282" lon="6.69544">
        <ele>1933.35</ele>
        <time>2016-02-17T12:18:33Z</time>
      </trkpt>
      <trkpt lat="45.52823" lon="6.69532">
        <ele>1932.39</ele>
        <time>2016-02-17T12:18:53Z</time>
      </trkpt>
      <trkpt lat="45.52827" lon="6.69528">
        <ele>1931.91</ele>
        <time>2016-02-17T12:18:57Z</time>
      </trkpt>
      <trkpt lat="45.52836" lon="6.69516">
        <ele>1928.06</ele>
        <time>2016-02-17T12:19:02Z</time>
      </trkpt>
      <trkpt lat="45.52848" lon="6.69499">
        <ele>1925.66</ele>
        <time>2016-02-17T12:19:05Z</time>
      </trkpt>
      <trkpt lat="45.52857" lon="6.69487">
        <ele>1925.66</ele>
        <time>2016-02-17T12:19:08Z</time>
      </trkpt>
      <trkpt lat="45.52871" lon="6.69476">
        <ele>1921.33</ele>
        <time>2016-02-17T12:19:11Z</time>
      </trkpt>
      <trkpt lat="45.52878" lon="6.69462">
        <ele>1916.53</ele>
        <time>2016-02-17T12:19:13Z</time>
      </trkpt>
      <trkpt lat="45.52882" lon="6.69456">
        <ele>1917.97</ele>
        <time>2016-02-17T12:19:14Z</time>
      </trkpt>
      <trkpt lat="45.52889" lon="6.69448">
        <ele>1912.68</ele>
        <time>2016-02-17T12:19:16Z</time>
      </trkpt>
      <trkpt lat="45.52892" lon="6.69444">
        <ele>1909.8</ele>
        <time>2016-02-17T12:19:17Z</time>
      </trkpt>
      <trkpt lat="45.52895" lon="6.69442">
        <ele>1913.16</ele>
        <time>2016-02-17T12:19:18Z</time>
      </trkpt>
      <trkpt lat="45.52898" lon="6.69439">
        <ele>1908.35</ele>
        <time>2016-02-17T12:19:19Z</time>
      </trkpt>
      <trkpt lat="45.52905" lon="6.69424">
        <ele>1901.63</ele>
        <time>2016-02-17T12:19:21Z</time>
      </trkpt>
      <trkpt lat="45.52909" lon="6.69416">
        <ele>1901.63</ele>
        <time>2016-02-17T12:19:22Z</time>
      </trkpt>
      <trkpt lat="45.52921" lon="6.694">
        <ele>1900.66</ele>
        <time>2016-02-17T12:19:29Z</time>
      </trkpt>
      <trkpt lat="45.52919" lon="6.69394">
        <ele>1900.66</ele>
        <time>2016-02-17T12:19:49Z</time>
      </trkpt>
      <trkpt lat="45.52918" lon="6.69394">
        <ele>1900.18</ele>
        <time>2016-02-17T12:20:24Z</time>
      </trkpt>
      <trkpt lat="45.52919" lon="6.69391">
        <ele>1899.22</ele>
        <time>2016-02-17T12:20:26Z</time>
      </trkpt>
      <trkpt lat="45.52915" lon="6.69385">
        <ele>1894.42</ele>
        <time>2016-02-17T12:20:30Z</time>
      </trkpt>
      <trkpt lat="45.52917" lon="6.69376">
        <ele>1892.97</ele>
        <time>2016-02-17T12:20:32Z</time>
      </trkpt>
      <trkpt lat="45.5292" lon="6.6936">
        <ele>1890.09</ele>
        <time>2016-02-17T12:20:35Z</time>
      </trkpt>
      <trkpt lat="45.52918" lon="6.69352">
        <ele>1888.17</ele>
        <time>2016-02-17T12:20:38Z</time>
      </trkpt>
      <trkpt lat="45.52914" lon="6.69348">
        <ele>1887.21</ele>
        <time>2016-02-17T12:20:42Z</time>
      </trkpt>
      <trkpt lat="45.52913" lon="6.69343">
        <ele>1884.32</ele>
        <time>2016-02-17T12:20:44Z</time>
      </trkpt>
      <trkpt lat="45.52913" lon="6.69338">
        <ele>1883.84</ele>
        <time>2016-02-17T12:20:46Z</time>
      </trkpt>
      <trkpt lat="45.52912" lon="6.69333">
        <ele>1874.23</ele>
        <time>2016-02-17T12:20:50Z</time>
      </trkpt>
      <trkpt lat="45.52911" lon="6.69329">
        <ele>1870.86</ele>
        <time>2016-02-17T12:20:51Z</time>
      </trkpt>
      <trkpt lat="45.52918" lon="6.6932">
        <ele>1867.98</ele>
        <time>2016-02-17T12:20:54Z</time>
      </trkpt>
      <trkpt lat="45.52928" lon="6.69312">
        <ele>1863.65</ele>
        <time>2016-02-17T12:20:56Z</time>
      </trkpt>
      <trkpt lat="45.52933" lon="6.6931">
        <ele>1859.33</ele>
        <time>2016-02-17T12:20:57Z</time>
      </trkpt>
      <trkpt lat="45.52937" lon="6.69311">
        <ele>1865.09</ele>
        <time>2016-02-17T12:20:58Z</time>
      </trkpt>
      <trkpt lat="45.52939" lon="6.69311">
        <ele>1859.81</ele>
        <time>2016-02-17T12:20:59Z</time>
      </trkpt>
      <trkpt lat="45.5294" lon="6.69308">
        <ele>1857.4</ele>
        <time>2016-02-17T12:21:00Z</time>
      </trkpt>
      <trkpt lat="45.52939" lon="6.69301">
        <ele>1855</ele>
        <time>2016-02-17T12:21:02Z</time>
      </trkpt>
      <trkpt lat="45.52934" lon="6.69278">
        <ele>1857.4</ele>
        <time>2016-02-17T12:21:17Z</time>
      </trkpt>
      <trkpt lat="45.52938" lon="6.69277">
        <ele>1855.96</ele>
        <time>2016-02-17T12:21:33Z</time>
      </trkpt>
      <trkpt lat="45.52944" lon="6.69273">
        <ele>1855.48</ele>
        <time>2016-02-17T12:21:50Z</time>
      </trkpt>
      <trkpt lat="45.52949" lon="6.69271">
        <ele>1854.52</ele>
        <time>2016-02-17T12:22:07Z</time>
      </trkpt>
      <trkpt lat="45.52949" lon="6.69268">
        <ele>1854.52</ele>
        <time>2016-02-17T12:22:26Z</time>
      </trkpt>
      <trkpt lat="45.5295" lon="6.69271">
        <ele>1854.52</ele>
        <time>2016-02-17T12:22:40Z</time>
      </trkpt>
      <trkpt lat="45.5295" lon="6.69269">
        <ele>1854.52</ele>
        <time>2016-02-17T12:23:07Z</time>
      </trkpt>
      <trkpt lat="45.52941" lon="6.69282">
        <ele>1854.52</ele>
        <time>2016-02-17T12:23:31Z</time>
      </trkpt>
      <trkpt lat="45.52948" lon="6.69277">
        <ele>1854.52</ele>
        <time>2016-02-17T12:23:50Z</time>
      </trkpt>
      <trkpt lat="45.5295" lon="6.69276">
        <ele>1854.52</ele>
        <time>2016-02-17T12:24:11Z</time>
      </trkpt>
      <trkpt lat="45.52948" lon="6.69278">
        <ele>1854.52</ele>
        <time>2016-02-17T12:24:33Z</time>
      </trkpt>
      <trkpt lat="45.52948" lon="6.69273">
        <ele>1855</ele>
        <time>2016-02-17T12:24:50Z</time>
      </trkpt>
      <trkpt lat="45.5295" lon="6.69268">
        <ele>1855</ele>
        <time>2016-02-17T12:25:07Z</time>
      </trkpt>
      <trkpt lat="45.52947" lon="6.69267">
        <ele>1855.96</ele>
        <time>2016-02-17T12:25:11Z</time>
      </trkpt>
      <trkpt lat="45.5295" lon="6.69265">
        <ele>1855.96</ele>
        <time>2016-02-17T12:25:28Z</time>
      </trkpt>
      <trkpt lat="45.52948" lon="6.69262">
        <ele>1856.44</ele>
        <time>2016-02-17T12:25:47Z</time>
      </trkpt>
      <trkpt lat="45.52951" lon="6.69264">
        <ele>1856.92</ele>
        <time>2016-02-17T12:26:11Z</time>
      </trkpt>
      <trkpt lat="45.5295" lon="6.69265">
        <ele>1856.92</ele>
        <time>2016-02-17T12:26:12Z</time>
      </trkpt>
      <trkpt lat="45.52947" lon="6.69263">
        <ele>1855.48</ele>
        <time>2016-02-17T12:26:28Z</time>
      </trkpt>
      <trkpt lat="45.52947" lon="6.69262">
        <ele>1856.44</ele>
        <time>2016-02-17T12:26:46Z</time>
      </trkpt>
      <trkpt lat="45.52952" lon="6.69267">
        <ele>1856.44</ele>
        <time>2016-02-17T12:27:05Z</time>
      </trkpt>
      <trkpt lat="45.5295" lon="6.69268">
        <ele>1855</ele>
        <time>2016-02-17T12:27:11Z</time>
      </trkpt>
      <trkpt lat="45.5295" lon="6.69268">
        <ele>1858.37</ele>
        <time>2016-02-17T12:27:16Z</time>
      </trkpt>
      <trkpt lat="45.52953" lon="6.69259">
        <ele>1855.96</ele>
        <time>2016-02-17T12:27:43Z</time>
      </trkpt>
      <trkpt lat="45.5295" lon="6.69258">
        <ele>1855.96</ele>
        <time>2016-02-17T12:28:05Z</time>
      </trkpt>
      <trkpt lat="45.52946" lon="6.69256">
        <ele>1855.96</ele>
        <time>2016-02-17T12:28:29Z</time>
      </trkpt>
      <trkpt lat="45.52948" lon="6.69254">
        <ele>1855.96</ele>
        <time>2016-02-17T12:28:43Z</time>
      </trkpt>
      <trkpt lat="45.52952" lon="6.6926">
        <ele>1855.96</ele>
        <time>2016-02-17T12:29:04Z</time>
      </trkpt>
      <trkpt lat="45.5295" lon="6.6926">
        <ele>1856.44</ele>
        <time>2016-02-17T12:29:23Z</time>
      </trkpt>
      <trkpt lat="45.52945" lon="6.6926">
        <ele>1856.44</ele>
        <time>2016-02-17T12:29:48Z</time>
      </trkpt>
      <trkpt lat="45.52948" lon="6.69264">
        <ele>1856.44</ele>
        <time>2016-02-17T12:30:05Z</time>
      </trkpt>
      <trkpt lat="45.52953" lon="6.69266">
        <ele>1856.44</ele>
        <time>2016-02-17T12:30:27Z</time>
      </trkpt>
      <trkpt lat="45.5295" lon="6.69266">
        <ele>1856.44</ele>
        <time>2016-02-17T12:30:40Z</time>
      </trkpt>
      <trkpt lat="45.52949" lon="6.69266">
        <ele>1848.75</ele>
        <time>2016-02-17T12:30:44Z</time>
      </trkpt>
      <trkpt lat="45.52949" lon="6.69266">
        <ele>1854.04</ele>
        <time>2016-02-17T12:30:45Z</time>
      </trkpt>
      <trkpt lat="45.52949" lon="6.69265">
        <ele>1857.89</ele>
        <time>2016-02-17T12:30:47Z</time>
      </trkpt>
      <trkpt lat="45.52949" lon="6.69266">
        <ele>1854.52</ele>
        <time>2016-02-17T12:30:53Z</time>
      </trkpt>
      <trkpt lat="45.52949" lon="6.69266">
        <ele>1854.52</ele>
        <time>2016-02-17T12:30:54Z</time>
      </trkpt>
      <trkpt lat="45.52949" lon="6.69266">
        <ele>1856.92</ele>
        <time>2016-02-17T12:30:57Z</time>
      </trkpt>
      <trkpt lat="45.52948" lon="6.69266">
        <ele>1853.56</ele>
        <time>2016-02-17T12:31:02Z</time>
      </trkpt>
      <trkpt lat="45.52949" lon="6.69266">
        <ele>1857.4</ele>
        <time>2016-02-17T12:31:12Z</time>
      </trkpt>
      <trkpt lat="45.5295" lon="6.69265">
        <ele>1857.4</ele>
        <time>2016-02-17T12:31:29Z</time>
      </trkpt>
      <trkpt lat="45.52946" lon="6.69261">
        <ele>1857.89</ele>
        <time>2016-02-17T12:31:45Z</time>
      </trkpt>
      <trkpt lat="45.5294" lon="6.69254">
        <ele>1859.81</ele>
        <time>2016-02-17T12:31:59Z</time>
      </trkpt>
      <trkpt lat="45.52933" lon="6.69244">
        <ele>1861.73</ele>
        <time>2016-02-17T12:32:12Z</time>
      </trkpt>
      <trkpt lat="45.5292" lon="6.69234">
        <ele>1864.13</ele>
        <time>2016-02-17T12:32:24Z</time>
      </trkpt>
      <trkpt lat="45.52907" lon="6.69227">
        <ele>1866.06</ele>
        <time>2016-02-17T12:32:37Z</time>
      </trkpt>
      <trkpt lat="45.52902" lon="6.69224">
        <ele>1867.02</ele>
        <time>2016-02-17T12:32:49Z</time>
      </trkpt>
      <trkpt lat="45.52898" lon="6.69221">
        <ele>1867.98</ele>
        <time>2016-02-17T12:33:10Z</time>
      </trkpt>
      <trkpt lat="45.52894" lon="6.69215">
        <ele>1868.46</ele>
        <time>2016-02-17T12:33:17Z</time>
      </trkpt>
      <trkpt lat="45.5289" lon="6.6921">
        <ele>1869.9</ele>
        <time>2016-02-17T12:33:28Z</time>
      </trkpt>
      <trkpt lat="45.5288" lon="6.692">
        <ele>1871.34</ele>
        <time>2016-02-17T12:33:41Z</time>
      </trkpt>
      <trkpt lat="45.52879" lon="6.69199">
        <ele>1871.34</ele>
        <time>2016-02-17T12:33:42Z</time>
      </trkpt>
      <trkpt lat="45.52867" lon="6.69189">
        <ele>1872.3</ele>
        <time>2016-02-17T12:33:53Z</time>
      </trkpt>
      <trkpt lat="45.52865" lon="6.69186">
        <ele>1872.79</ele>
        <time>2016-02-17T12:33:55Z</time>
      </trkpt>
      <trkpt lat="45.5285" lon="6.69169">
        <ele>1873.75</ele>
        <time>2016-02-17T12:34:09Z</time>
      </trkpt>
      <trkpt lat="45.52837" lon="6.69148">
        <ele>1874.71</ele>
        <time>2016-02-17T12:34:22Z</time>
      </trkpt>
      <trkpt lat="45.52824" lon="6.69123">
        <ele>1872.79</ele>
        <time>2016-02-17T12:34:32Z</time>
      </trkpt>
      <trkpt lat="45.52802" lon="6.69079">
        <ele>1868.94</ele>
        <time>2016-02-17T12:34:46Z</time>
      </trkpt>
      <trkpt lat="45.528" lon="6.69053">
        <ele>1866.06</ele>
        <time>2016-02-17T12:34:52Z</time>
      </trkpt>
      <trkpt lat="45.52801" lon="6.69047">
        <ele>1865.58</ele>
        <time>2016-02-17T12:34:53Z</time>
      </trkpt>
      <trkpt lat="45.52804" lon="6.69034">
        <ele>1863.65</ele>
        <time>2016-02-17T12:34:55Z</time>
      </trkpt>
      <trkpt lat="45.52807" lon="6.6902">
        <ele>1862.21</ele>
        <time>2016-02-17T12:34:57Z</time>
      </trkpt>
      <trkpt lat="45.52809" lon="6.69013">
        <ele>1861.73</ele>
        <time>2016-02-17T12:34:58Z</time>
      </trkpt>
      <trkpt lat="45.52811" lon="6.68974">
        <ele>1859.33</ele>
        <time>2016-02-17T12:35:07Z</time>
      </trkpt>
      <trkpt lat="45.52812" lon="6.68967">
        <ele>1859.33</ele>
        <time>2016-02-17T12:35:10Z</time>
      </trkpt>
      <trkpt lat="45.5281" lon="6.68952">
        <ele>1859.33</ele>
        <time>2016-02-17T12:35:16Z</time>
      </trkpt>
      <trkpt lat="45.52811" lon="6.68949">
        <ele>1859.33</ele>
        <time>2016-02-17T12:35:17Z</time>
      </trkpt>
      <trkpt lat="45.52812" lon="6.68946">
        <ele>1859.33</ele>
        <time>2016-02-17T12:35:18Z</time>
      </trkpt>
      <trkpt lat="45.52812" lon="6.68928">
        <ele>1859.33</ele>
        <time>2016-02-17T12:35:25Z</time>
      </trkpt>
      <trkpt lat="45.52805" lon="6.68898">
        <ele>1859.81</ele>
        <time>2016-02-17T12:35:37Z</time>
      </trkpt>
      <trkpt lat="45.52805" lon="6.6888">
        <ele>1859.33</ele>
        <time>2016-02-17T12:35:46Z</time>
      </trkpt>
      <trkpt lat="45.52805" lon="6.68877">
        <ele>1859.33</ele>
        <time>2016-02-17T12:35:47Z</time>
      </trkpt>
      <trkpt lat="45.52805" lon="6.68875">
        <ele>1859.33</ele>
        <time>2016-02-17T12:35:48Z</time>
      </trkpt>
      <trkpt lat="45.52805" lon="6.68873">
        <ele>1859.33</ele>
        <time>2016-02-17T12:35:49Z</time>
      </trkpt>
      <trkpt lat="45.52805" lon="6.68871">
        <ele>1859.33</ele>
        <time>2016-02-17T12:35:50Z</time>
      </trkpt>
      <trkpt lat="45.52806" lon="6.68869">
        <ele>1859.33</ele>
        <time>2016-02-17T12:35:51Z</time>
      </trkpt>
      <trkpt lat="45.52806" lon="6.68867">
        <ele>1860.29</ele>
        <time>2016-02-17T12:35:52Z</time>
      </trkpt>
      <trkpt lat="45.52806" lon="6.68866">
        <ele>1860.29</ele>
        <time>2016-02-17T12:35:53Z</time>
      </trkpt>
      <trkpt lat="45.52806" lon="6.68864">
        <ele>1860.29</ele>
        <time>2016-02-17T12:35:54Z</time>
      </trkpt>
      <trkpt lat="45.52807" lon="6.68855">
        <ele>1860.77</ele>
        <time>2016-02-17T12:35:59Z</time>
      </trkpt>
      <trkpt lat="45.52807" lon="6.68852">
        <ele>1860.77</ele>
        <time>2016-02-17T12:36:00Z</time>
      </trkpt>
      <trkpt lat="45.5281" lon="6.68847">
        <ele>1861.25</ele>
        <time>2016-02-17T12:36:03Z</time>
      </trkpt>
      <trkpt lat="45.52811" lon="6.68845">
        <ele>1861.25</ele>
        <time>2016-02-17T12:36:04Z</time>
      </trkpt>
      <trkpt lat="45.52811" lon="6.68842">
        <ele>1861.25</ele>
        <time>2016-02-17T12:36:05Z</time>
      </trkpt>
      <trkpt lat="45.52813" lon="6.68839">
        <ele>1861.73</ele>
        <time>2016-02-17T12:36:07Z</time>
      </trkpt>
      <trkpt lat="45.52813" lon="6.68837">
        <ele>1861.73</ele>
        <time>2016-02-17T12:36:08Z</time>
      </trkpt>
      <trkpt lat="45.52815" lon="6.68823">
        <ele>1862.69</ele>
        <time>2016-02-17T12:36:15Z</time>
      </trkpt>
      <trkpt lat="45.52815" lon="6.68821">
        <ele>1862.69</ele>
        <time>2016-02-17T12:36:16Z</time>
      </trkpt>
      <trkpt lat="45.52815" lon="6.68818">
        <ele>1862.69</ele>
        <time>2016-02-17T12:36:17Z</time>
      </trkpt>
      <trkpt lat="45.52815" lon="6.68815">
        <ele>1862.69</ele>
        <time>2016-02-17T12:36:18Z</time>
      </trkpt>
      <trkpt lat="45.52814" lon="6.68813">
        <ele>1862.69</ele>
        <time>2016-02-17T12:36:19Z</time>
      </trkpt>
      <trkpt lat="45.52814" lon="6.68811">
        <ele>1863.17</ele>
        <time>2016-02-17T12:36:20Z</time>
      </trkpt>
      <trkpt lat="45.52813" lon="6.68803">
        <ele>1863.65</ele>
        <time>2016-02-17T12:36:25Z</time>
      </trkpt>
      <trkpt lat="45.52813" lon="6.68801">
        <ele>1863.65</ele>
        <time>2016-02-17T12:36:26Z</time>
      </trkpt>
      <trkpt lat="45.52813" lon="6.68799">
        <ele>1863.65</ele>
        <time>2016-02-17T12:36:27Z</time>
      </trkpt>
      <trkpt lat="45.52812" lon="6.68797">
        <ele>1863.65</ele>
        <time>2016-02-17T12:36:28Z</time>
      </trkpt>
      <trkpt lat="45.52811" lon="6.68783">
        <ele>1865.09</ele>
        <time>2016-02-17T12:36:37Z</time>
      </trkpt>
      <trkpt lat="45.52811" lon="6.68781">
        <ele>1865.58</ele>
        <time>2016-02-17T12:36:38Z</time>
      </trkpt>
      <trkpt lat="45.5281" lon="6.68779">
        <ele>1865.58</ele>
        <time>2016-02-17T12:36:39Z</time>
      </trkpt>
      <trkpt lat="45.5281" lon="6.68772">
        <ele>1866.06</ele>
        <time>2016-02-17T12:36:43Z</time>
      </trkpt>
      <trkpt lat="45.5281" lon="6.68769">
        <ele>1866.54</ele>
        <time>2016-02-17T12:36:44Z</time>
      </trkpt>
      <trkpt lat="45.5281" lon="6.68767">
        <ele>1866.54</ele>
        <time>2016-02-17T12:36:45Z</time>
      </trkpt>
      <trkpt lat="45.5281" lon="6.68765">
        <ele>1866.54</ele>
        <time>2016-02-17T12:36:46Z</time>
      </trkpt>
      <trkpt lat="45.5281" lon="6.68763">
        <ele>1867.02</ele>
        <time>2016-02-17T12:36:47Z</time>
      </trkpt>
      <trkpt lat="45.52809" lon="6.68758">
        <ele>1867.5</ele>
        <time>2016-02-17T12:36:50Z</time>
      </trkpt>
      <trkpt lat="45.52803" lon="6.68739">
        <ele>1869.42</ele>
        <time>2016-02-17T12:37:02Z</time>
      </trkpt>
      <trkpt lat="45.52801" lon="6.68733">
        <ele>1870.38</ele>
        <time>2016-02-17T12:37:06Z</time>
      </trkpt>
      <trkpt lat="45.52788" lon="6.68714">
        <ele>1872.3</ele>
        <time>2016-02-17T12:37:21Z</time>
      </trkpt>
      <trkpt lat="45.52786" lon="6.68712">
        <ele>1872.3</ele>
        <time>2016-02-17T12:37:23Z</time>
      </trkpt>
      <trkpt lat="45.52771" lon="6.68694">
        <ele>1872.79</ele>
        <time>2016-02-17T12:37:35Z</time>
      </trkpt>
      <trkpt lat="45.52764" lon="6.68685">
        <ele>1873.27</ele>
        <time>2016-02-17T12:37:42Z</time>
      </trkpt>
      <trkpt lat="45.52763" lon="6.68684">
        <ele>1873.27</ele>
        <time>2016-02-17T12:37:43Z</time>
      </trkpt>
      <trkpt lat="45.52762" lon="6.68682">
        <ele>1873.27</ele>
        <time>2016-02-17T12:37:44Z</time>
      </trkpt>
      <trkpt lat="45.52761" lon="6.6868">
        <ele>1873.75</ele>
        <time>2016-02-17T12:37:45Z</time>
      </trkpt>
      <trkpt lat="45.5276" lon="6.68679">
        <ele>1873.75</ele>
        <time>2016-02-17T12:37:46Z</time>
      </trkpt>
      <trkpt lat="45.52759" lon="6.68677">
        <ele>1873.75</ele>
        <time>2016-02-17T12:37:47Z</time>
      </trkpt>
      <trkpt lat="45.52758" lon="6.68676">
        <ele>1873.75</ele>
        <time>2016-02-17T12:37:48Z</time>
      </trkpt>
      <trkpt lat="45.52757" lon="6.68674">
        <ele>1873.75</ele>
        <time>2016-02-17T12:37:49Z</time>
      </trkpt>
      <trkpt lat="45.52756" lon="6.68672">
        <ele>1873.75</ele>
        <time>2016-02-17T12:37:50Z</time>
      </trkpt>
      <trkpt lat="45.52754" lon="6.68671">
        <ele>1873.75</ele>
        <time>2016-02-17T12:37:51Z</time>
      </trkpt>
      <trkpt lat="45.52753" lon="6.6867">
        <ele>1873.75</ele>
        <time>2016-02-17T12:37:52Z</time>
      </trkpt>
      <trkpt lat="45.52752" lon="6.68669">
        <ele>1873.75</ele>
        <time>2016-02-17T12:37:53Z</time>
      </trkpt>
      <trkpt lat="45.52751" lon="6.68668">
        <ele>1873.75</ele>
        <time>2016-02-17T12:37:54Z</time>
      </trkpt>
      <trkpt lat="45.52744" lon="6.68661">
        <ele>1874.23</ele>
        <time>2016-02-17T12:38:00Z</time>
      </trkpt>
      <trkpt lat="45.52735" lon="6.6865">
        <ele>1874.71</ele>
        <time>2016-02-17T12:38:07Z</time>
      </trkpt>
      <trkpt lat="45.52734" lon="6.68649">
        <ele>1874.71</ele>
        <time>2016-02-17T12:38:08Z</time>
      </trkpt>
      <trkpt lat="45.52733" lon="6.68647">
        <ele>1874.71</ele>
        <time>2016-02-17T12:38:09Z</time>
      </trkpt>
      <trkpt lat="45.52723" lon="6.68634">
        <ele>1874.71</ele>
        <time>2016-02-17T12:38:17Z</time>
      </trkpt>
      <trkpt lat="45.52722" lon="6.68632">
        <ele>1874.71</ele>
        <time>2016-02-17T12:38:18Z</time>
      </trkpt>
      <trkpt lat="45.52721" lon="6.68631">
        <ele>1874.71</ele>
        <time>2016-02-17T12:38:19Z</time>
      </trkpt>
      <trkpt lat="45.5272" lon="6.6863">
        <ele>1874.71</ele>
        <time>2016-02-17T12:38:20Z</time>
      </trkpt>
      <trkpt lat="45.52719" lon="6.68628">
        <ele>1874.71</ele>
        <time>2016-02-17T12:38:21Z</time>
      </trkpt>
      <trkpt lat="45.52718" lon="6.68626">
        <ele>1874.71</ele>
        <time>2016-02-17T12:38:22Z</time>
      </trkpt>
      <trkpt lat="45.52717" lon="6.68624">
        <ele>1874.71</ele>
        <time>2016-02-17T12:38:23Z</time>
      </trkpt>
      <trkpt lat="45.52715" lon="6.68621">
        <ele>1874.71</ele>
        <time>2016-02-17T12:38:24Z</time>
      </trkpt>
      <trkpt lat="45.52714" lon="6.68619">
        <ele>1874.71</ele>
        <time>2016-02-17T12:38:25Z</time>
      </trkpt>
      <trkpt lat="45.52713" lon="6.68617">
        <ele>1874.71</ele>
        <time>2016-02-17T12:38:26Z</time>
      </trkpt>
      <trkpt lat="45.52712" lon="6.68615">
        <ele>1874.71</ele>
        <time>2016-02-17T12:38:27Z</time>
      </trkpt>
      <trkpt lat="45.52712" lon="6.68613">
        <ele>1874.71</ele>
        <time>2016-02-17T12:38:28Z</time>
      </trkpt>
      <trkpt lat="45.52711" lon="6.68611">
        <ele>1874.71</ele>
        <time>2016-02-17T12:38:29Z</time>
      </trkpt>
      <trkpt lat="45.5271" lon="6.68609">
        <ele>1875.19</ele>
        <time>2016-02-17T12:38:30Z</time>
      </trkpt>
      <trkpt lat="45.52706" lon="6.68582">
        <ele>1875.19</ele>
        <time>2016-02-17T12:38:41Z</time>
      </trkpt>
      <trkpt lat="45.52697" lon="6.68567">
        <ele>1875.19</ele>
        <time>2016-02-17T12:38:50Z</time>
      </trkpt>
      <trkpt lat="45.52696" lon="6.68565">
        <ele>1875.19</ele>
        <time>2016-02-17T12:38:51Z</time>
      </trkpt>
      <trkpt lat="45.52693" lon="6.68551">
        <ele>1875.19</ele>
        <time>2016-02-17T12:38:58Z</time>
      </trkpt>
      <trkpt lat="45.5269" lon="6.68536">
        <ele>1875.67</ele>
        <time>2016-02-17T12:39:06Z</time>
      </trkpt>
      <trkpt lat="45.5269" lon="6.68534">
        <ele>1876.15</ele>
        <time>2016-02-17T12:39:07Z</time>
      </trkpt>
      <trkpt lat="45.52691" lon="6.68533">
        <ele>1876.15</ele>
        <time>2016-02-17T12:39:08Z</time>
      </trkpt>
      <trkpt lat="45.52692" lon="6.68526">
        <ele>1877.11</ele>
        <time>2016-02-17T12:39:13Z</time>
      </trkpt>
      <trkpt lat="45.52693" lon="6.68524">
        <ele>1877.11</ele>
        <time>2016-02-17T12:39:14Z</time>
      </trkpt>
      <trkpt lat="45.52693" lon="6.68522">
        <ele>1877.11</ele>
        <time>2016-02-17T12:39:15Z</time>
      </trkpt>
      <trkpt lat="45.52693" lon="6.6852">
        <ele>1877.11</ele>
        <time>2016-02-17T12:39:16Z</time>
      </trkpt>
      <trkpt lat="45.52693" lon="6.68519">
        <ele>1877.11</ele>
        <time>2016-02-17T12:39:17Z</time>
      </trkpt>
      <trkpt lat="45.52695" lon="6.6851">
        <ele>1878.07</ele>
        <time>2016-02-17T12:39:22Z</time>
      </trkpt>
      <trkpt lat="45.52695" lon="6.68508">
        <ele>1878.07</ele>
        <time>2016-02-17T12:39:23Z</time>
      </trkpt>
      <trkpt lat="45.52695" lon="6.68506">
        <ele>1878.07</ele>
        <time>2016-02-17T12:39:24Z</time>
      </trkpt>
      <trkpt lat="45.52696" lon="6.68504">
        <ele>1878.07</ele>
        <time>2016-02-17T12:39:25Z</time>
      </trkpt>
      <trkpt lat="45.52697" lon="6.68502">
        <ele>1878.55</ele>
        <time>2016-02-17T12:39:26Z</time>
      </trkpt>
      <trkpt lat="45.52697" lon="6.68499">
        <ele>1878.55</ele>
        <time>2016-02-17T12:39:28Z</time>
      </trkpt>
      <trkpt lat="45.52696" lon="6.68497">
        <ele>1878.55</ele>
        <time>2016-02-17T12:39:29Z</time>
      </trkpt>
      <trkpt lat="45.52691" lon="6.68479">
        <ele>1879.51</ele>
        <time>2016-02-17T12:39:39Z</time>
      </trkpt>
      <trkpt lat="45.52682" lon="6.68464">
        <ele>1880.96</ele>
        <time>2016-02-17T12:39:50Z</time>
      </trkpt>
      <trkpt lat="45.52678" lon="6.68457">
        <ele>1880.96</ele>
        <time>2016-02-17T12:39:56Z</time>
      </trkpt>
      <trkpt lat="45.52676" lon="6.68456">
        <ele>1881.92</ele>
        <time>2016-02-17T12:39:57Z</time>
      </trkpt>
      <trkpt lat="45.52667" lon="6.68445">
        <ele>1882.88</ele>
        <time>2016-02-17T12:40:07Z</time>
      </trkpt>
      <trkpt lat="45.52656" lon="6.68432">
        <ele>1884.32</ele>
        <time>2016-02-17T12:40:20Z</time>
      </trkpt>
      <trkpt lat="45.52637" lon="6.68422">
        <ele>1886.24</ele>
        <time>2016-02-17T12:40:36Z</time>
      </trkpt>
      <trkpt lat="45.52624" lon="6.68421">
        <ele>1887.69</ele>
        <time>2016-02-17T12:40:48Z</time>
      </trkpt>
      <trkpt lat="45.52621" lon="6.68421">
        <ele>1887.69</ele>
        <time>2016-02-17T12:40:49Z</time>
      </trkpt>
      <trkpt lat="45.52619" lon="6.68421">
        <ele>1888.17</ele>
        <time>2016-02-17T12:40:50Z</time>
      </trkpt>
      <trkpt lat="45.52617" lon="6.68422">
        <ele>1888.17</ele>
        <time>2016-02-17T12:40:51Z</time>
      </trkpt>
      <trkpt lat="45.52615" lon="6.68422">
        <ele>1888.17</ele>
        <time>2016-02-17T12:40:52Z</time>
      </trkpt>
      <trkpt lat="45.52613" lon="6.68422">
        <ele>1888.17</ele>
        <time>2016-02-17T12:40:53Z</time>
      </trkpt>
      <trkpt lat="45.52611" lon="6.68423">
        <ele>1888.17</ele>
        <time>2016-02-17T12:40:54Z</time>
      </trkpt>
      <trkpt lat="45.52584" lon="6.6843">
        <ele>1888.65</ele>
        <time>2016-02-17T12:41:07Z</time>
      </trkpt>
      <trkpt lat="45.5257" lon="6.68445">
        <ele>1888.65</ele>
        <time>2016-02-17T12:41:20Z</time>
      </trkpt>
      <trkpt lat="45.52554" lon="6.68467">
        <ele>1888.65</ele>
        <time>2016-02-17T12:41:32Z</time>
      </trkpt>
      <trkpt lat="45.52547" lon="6.68473">
        <ele>1888.65</ele>
        <time>2016-02-17T12:41:40Z</time>
      </trkpt>
      <trkpt lat="45.52546" lon="6.68473">
        <ele>1888.65</ele>
        <time>2016-02-17T12:41:41Z</time>
      </trkpt>
      <trkpt lat="45.52544" lon="6.68475">
        <ele>1888.65</ele>
        <time>2016-02-17T12:41:42Z</time>
      </trkpt>
      <trkpt lat="45.52523" lon="6.68482">
        <ele>1889.13</ele>
        <time>2016-02-17T12:41:57Z</time>
      </trkpt>
      <trkpt lat="45.52517" lon="6.68481">
        <ele>1889.13</ele>
        <time>2016-02-17T12:42:01Z</time>
      </trkpt>
      <trkpt lat="45.52513" lon="6.6848">
        <ele>1889.61</ele>
        <time>2016-02-17T12:42:04Z</time>
      </trkpt>
      <trkpt lat="45.52512" lon="6.6848">
        <ele>1889.61</ele>
        <time>2016-02-17T12:42:05Z</time>
      </trkpt>
      <trkpt lat="45.52508" lon="6.68479">
        <ele>1889.61</ele>
        <time>2016-02-17T12:42:07Z</time>
      </trkpt>
      <trkpt lat="45.52506" lon="6.6848">
        <ele>1889.61</ele>
        <time>2016-02-17T12:42:08Z</time>
      </trkpt>
      <trkpt lat="45.52504" lon="6.6848">
        <ele>1889.61</ele>
        <time>2016-02-17T12:42:09Z</time>
      </trkpt>
      <trkpt lat="45.52492" lon="6.68486">
        <ele>1890.09</ele>
        <time>2016-02-17T12:42:17Z</time>
      </trkpt>
      <trkpt lat="45.5249" lon="6.68488">
        <ele>1890.09</ele>
        <time>2016-02-17T12:42:18Z</time>
      </trkpt>
      <trkpt lat="45.52488" lon="6.6849">
        <ele>1890.09</ele>
        <time>2016-02-17T12:42:19Z</time>
      </trkpt>
      <trkpt lat="45.52486" lon="6.68492">
        <ele>1890.09</ele>
        <time>2016-02-17T12:42:20Z</time>
      </trkpt>
      <trkpt lat="45.52484" lon="6.68494">
        <ele>1890.09</ele>
        <time>2016-02-17T12:42:21Z</time>
      </trkpt>
      <trkpt lat="45.52481" lon="6.68496">
        <ele>1890.09</ele>
        <time>2016-02-17T12:42:22Z</time>
      </trkpt>
      <trkpt lat="45.52462" lon="6.68512">
        <ele>1890.09</ele>
        <time>2016-02-17T12:42:34Z</time>
      </trkpt>
      <trkpt lat="45.52446" lon="6.68527">
        <ele>1890.57</ele>
        <time>2016-02-17T12:42:46Z</time>
      </trkpt>
      <trkpt lat="45.52428" lon="6.6854">
        <ele>1891.05</ele>
        <time>2016-02-17T12:42:57Z</time>
      </trkpt>
      <trkpt lat="45.52413" lon="6.68555">
        <ele>1891.05</ele>
        <time>2016-02-17T12:43:08Z</time>
      </trkpt>
      <trkpt lat="45.5241" lon="6.6856">
        <ele>1891.53</ele>
        <time>2016-02-17T12:43:13Z</time>
      </trkpt>
      <trkpt lat="45.52409" lon="6.68562">
        <ele>1891.53</ele>
        <time>2016-02-17T12:43:14Z</time>
      </trkpt>
      <trkpt lat="45.5239" lon="6.6859">
        <ele>1892.01</ele>
        <time>2016-02-17T12:43:28Z</time>
      </trkpt>
      <trkpt lat="45.52385" lon="6.68596">
        <ele>1892.49</ele>
        <time>2016-02-17T12:43:34Z</time>
      </trkpt>
      <trkpt lat="45.52383" lon="6.68598">
        <ele>1892.49</ele>
        <time>2016-02-17T12:43:35Z</time>
      </trkpt>
      <trkpt lat="45.52382" lon="6.68601">
        <ele>1892.49</ele>
        <time>2016-02-17T12:43:36Z</time>
      </trkpt>
      <trkpt lat="45.5238" lon="6.68603">
        <ele>1892.49</ele>
        <time>2016-02-17T12:43:37Z</time>
      </trkpt>
      <trkpt lat="45.52379" lon="6.68605">
        <ele>1892.49</ele>
        <time>2016-02-17T12:43:38Z</time>
      </trkpt>
      <trkpt lat="45.52362" lon="6.68623">
        <ele>1892.49</ele>
        <time>2016-02-17T12:43:50Z</time>
      </trkpt>
      <trkpt lat="45.52358" lon="6.68626">
        <ele>1892.49</ele>
        <time>2016-02-17T12:43:54Z</time>
      </trkpt>
      <trkpt lat="45.52356" lon="6.68627">
        <ele>1892.49</ele>
        <time>2016-02-17T12:43:55Z</time>
      </trkpt>
      <trkpt lat="45.52349" lon="6.68635">
        <ele>1892.49</ele>
        <time>2016-02-17T12:44:00Z</time>
      </trkpt>
      <trkpt lat="45.52347" lon="6.68636">
        <ele>1892.49</ele>
        <time>2016-02-17T12:44:01Z</time>
      </trkpt>
      <trkpt lat="45.52343" lon="6.68644">
        <ele>1892.49</ele>
        <time>2016-02-17T12:44:06Z</time>
      </trkpt>
      <trkpt lat="45.52342" lon="6.68646">
        <ele>1892.49</ele>
        <time>2016-02-17T12:44:07Z</time>
      </trkpt>
      <trkpt lat="45.52329" lon="6.68671">
        <ele>1892.97</ele>
        <time>2016-02-17T12:44:15Z</time>
      </trkpt>
      <trkpt lat="45.52328" lon="6.68679">
        <ele>1892.97</ele>
        <time>2016-02-17T12:44:18Z</time>
      </trkpt>
      <trkpt lat="45.52327" lon="6.68681">
        <ele>1892.97</ele>
        <time>2016-02-17T12:44:19Z</time>
      </trkpt>
      <trkpt lat="45.52326" lon="6.68684">
        <ele>1892.97</ele>
        <time>2016-02-17T12:44:20Z</time>
      </trkpt>
      <trkpt lat="45.52325" lon="6.68687">
        <ele>1893.45</ele>
        <time>2016-02-17T12:44:21Z</time>
      </trkpt>
      <trkpt lat="45.52325" lon="6.68689">
        <ele>1893.45</ele>
        <time>2016-02-17T12:44:22Z</time>
      </trkpt>
      <trkpt lat="45.52316" lon="6.68715">
        <ele>1894.42</ele>
        <time>2016-02-17T12:44:36Z</time>
      </trkpt>
      <trkpt lat="45.5231" lon="6.68718">
        <ele>1894.9</ele>
        <time>2016-02-17T12:44:41Z</time>
      </trkpt>
      <trkpt lat="45.52308" lon="6.68718">
        <ele>1894.9</ele>
        <time>2016-02-17T12:44:42Z</time>
      </trkpt>
      <trkpt lat="45.52306" lon="6.6872">
        <ele>1894.9</ele>
        <time>2016-02-17T12:44:43Z</time>
      </trkpt>
      <trkpt lat="45.52304" lon="6.68721">
        <ele>1894.9</ele>
        <time>2016-02-17T12:44:44Z</time>
      </trkpt>
      <trkpt lat="45.52303" lon="6.68722">
        <ele>1894.9</ele>
        <time>2016-02-17T12:44:45Z</time>
      </trkpt>
      <trkpt lat="45.52302" lon="6.68723">
        <ele>1894.9</ele>
        <time>2016-02-17T12:44:46Z</time>
      </trkpt>
      <trkpt lat="45.52293" lon="6.68734">
        <ele>1894.9</ele>
        <time>2016-02-17T12:44:52Z</time>
      </trkpt>
      <trkpt lat="45.52292" lon="6.68736">
        <ele>1894.9</ele>
        <time>2016-02-17T12:44:53Z</time>
      </trkpt>
      <trkpt lat="45.52284" lon="6.68754">
        <ele>1894.9</ele>
        <time>2016-02-17T12:45:00Z</time>
      </trkpt>
      <trkpt lat="45.52283" lon="6.68757">
        <ele>1894.9</ele>
        <time>2016-02-17T12:45:01Z</time>
      </trkpt>
      <trkpt lat="45.52283" lon="6.6876">
        <ele>1894.9</ele>
        <time>2016-02-17T12:45:02Z</time>
      </trkpt>
      <trkpt lat="45.52282" lon="6.68762">
        <ele>1894.9</ele>
        <time>2016-02-17T12:45:03Z</time>
      </trkpt>
      <trkpt lat="45.52281" lon="6.68765">
        <ele>1894.9</ele>
        <time>2016-02-17T12:45:04Z</time>
      </trkpt>
      <trkpt lat="45.5228" lon="6.68767">
        <ele>1894.9</ele>
        <time>2016-02-17T12:45:05Z</time>
      </trkpt>
      <trkpt lat="45.52273" lon="6.68792">
        <ele>1894.9</ele>
        <time>2016-02-17T12:45:14Z</time>
      </trkpt>
      <trkpt lat="45.52273" lon="6.68793">
        <ele>1894.9</ele>
        <time>2016-02-17T12:45:15Z</time>
      </trkpt>
      <trkpt lat="45.52272" lon="6.68795">
        <ele>1894.9</ele>
        <time>2016-02-17T12:45:16Z</time>
      </trkpt>
      <trkpt lat="45.5227" lon="6.68797">
        <ele>1894.9</ele>
        <time>2016-02-17T12:45:17Z</time>
      </trkpt>
      <trkpt lat="45.52266" lon="6.68802">
        <ele>1893.93</ele>
        <time>2016-02-17T12:45:21Z</time>
      </trkpt>
      <trkpt lat="45.52264" lon="6.68804">
        <ele>1893.93</ele>
        <time>2016-02-17T12:45:22Z</time>
      </trkpt>
      <trkpt lat="45.52258" lon="6.68808">
        <ele>1893.93</ele>
        <time>2016-02-17T12:45:26Z</time>
      </trkpt>
      <trkpt lat="45.52255" lon="6.68809">
        <ele>1893.93</ele>
        <time>2016-02-17T12:45:27Z</time>
      </trkpt>
      <trkpt lat="45.52235" lon="6.6882">
        <ele>1892.97</ele>
        <time>2016-02-17T12:45:36Z</time>
      </trkpt>
      <trkpt lat="45.52233" lon="6.68821">
        <ele>1892.97</ele>
        <time>2016-02-17T12:45:37Z</time>
      </trkpt>
      <trkpt lat="45.52232" lon="6.68823">
        <ele>1892.97</ele>
        <time>2016-02-17T12:45:38Z</time>
      </trkpt>
      <trkpt lat="45.5223" lon="6.68824">
        <ele>1892.49</ele>
        <time>2016-02-17T12:45:39Z</time>
      </trkpt>
      <trkpt lat="45.52228" lon="6.68826">
        <ele>1892.49</ele>
        <time>2016-02-17T12:45:40Z</time>
      </trkpt>
      <trkpt lat="45.52226" lon="6.68828">
        <ele>1892.01</ele>
        <time>2016-02-17T12:45:41Z</time>
      </trkpt>
      <trkpt lat="45.52224" lon="6.6883">
        <ele>1892.01</ele>
        <time>2016-02-17T12:45:42Z</time>
      </trkpt>
      <trkpt lat="45.52222" lon="6.68831">
        <ele>1892.01</ele>
        <time>2016-02-17T12:45:43Z</time>
      </trkpt>
      <trkpt lat="45.5222" lon="6.68832">
        <ele>1892.01</ele>
        <time>2016-02-17T12:45:44Z</time>
      </trkpt>
      <trkpt lat="45.52218" lon="6.68832">
        <ele>1891.05</ele>
        <time>2016-02-17T12:45:45Z</time>
      </trkpt>
      <trkpt lat="45.52197" lon="6.68836">
        <ele>1891.05</ele>
        <time>2016-02-17T12:45:53Z</time>
      </trkpt>
      <trkpt lat="45.52171" lon="6.68847">
        <ele>1889.61</ele>
        <time>2016-02-17T12:46:05Z</time>
      </trkpt>
      <trkpt lat="45.52158" lon="6.68883">
        <ele>1887.21</ele>
        <time>2016-02-17T12:46:15Z</time>
      </trkpt>
      <trkpt lat="45.52156" lon="6.68886">
        <ele>1887.21</ele>
        <time>2016-02-17T12:46:16Z</time>
      </trkpt>
      <trkpt lat="45.52129" lon="6.68917">
        <ele>1884.8</ele>
        <time>2016-02-17T12:46:28Z</time>
      </trkpt>
      <trkpt lat="45.52127" lon="6.68919">
        <ele>1884.8</ele>
        <time>2016-02-17T12:46:29Z</time>
      </trkpt>
      <trkpt lat="45.52126" lon="6.68921">
        <ele>1884.8</ele>
        <time>2016-02-17T12:46:30Z</time>
      </trkpt>
      <trkpt lat="45.52125" lon="6.68923">
        <ele>1884.8</ele>
        <time>2016-02-17T12:46:31Z</time>
      </trkpt>
      <trkpt lat="45.52123" lon="6.68926">
        <ele>1884.32</ele>
        <time>2016-02-17T12:46:32Z</time>
      </trkpt>
      <trkpt lat="45.52122" lon="6.68928">
        <ele>1884.32</ele>
        <time>2016-02-17T12:46:33Z</time>
      </trkpt>
      <trkpt lat="45.5212" lon="6.68931">
        <ele>1884.32</ele>
        <time>2016-02-17T12:46:34Z</time>
      </trkpt>
      <trkpt lat="45.5211" lon="6.6897">
        <ele>1880.96</ele>
        <time>2016-02-17T12:46:46Z</time>
      </trkpt>
      <trkpt lat="45.52109" lon="6.68976">
        <ele>1880</ele>
        <time>2016-02-17T12:46:48Z</time>
      </trkpt>
      <trkpt lat="45.52108" lon="6.6898">
        <ele>1880</ele>
        <time>2016-02-17T12:46:49Z</time>
      </trkpt>
      <trkpt lat="45.52107" lon="6.68983">
        <ele>1879.51</ele>
        <time>2016-02-17T12:46:50Z</time>
      </trkpt>
      <trkpt lat="45.52106" lon="6.68985">
        <ele>1879.51</ele>
        <time>2016-02-17T12:46:51Z</time>
      </trkpt>
      <trkpt lat="45.52104" lon="6.68987">
        <ele>1879.51</ele>
        <time>2016-02-17T12:46:52Z</time>
      </trkpt>
      <trkpt lat="45.52103" lon="6.68988">
        <ele>1879.51</ele>
        <time>2016-02-17T12:46:53Z</time>
      </trkpt>
      <trkpt lat="45.52101" lon="6.68989">
        <ele>1879.51</ele>
        <time>2016-02-17T12:46:54Z</time>
      </trkpt>
      <trkpt lat="45.52099" lon="6.6899">
        <ele>1878.55</ele>
        <time>2016-02-17T12:46:55Z</time>
      </trkpt>
      <trkpt lat="45.52097" lon="6.68991">
        <ele>1878.55</ele>
        <time>2016-02-17T12:46:56Z</time>
      </trkpt>
      <trkpt lat="45.52094" lon="6.68993">
        <ele>1878.55</ele>
        <time>2016-02-17T12:46:57Z</time>
      </trkpt>
      <trkpt lat="45.52092" lon="6.68994">
        <ele>1878.55</ele>
        <time>2016-02-17T12:46:58Z</time>
      </trkpt>
      <trkpt lat="45.52085" lon="6.68998">
        <ele>1878.07</ele>
        <time>2016-02-17T12:47:01Z</time>
      </trkpt>
      <trkpt lat="45.52083" lon="6.68999">
        <ele>1878.07</ele>
        <time>2016-02-17T12:47:02Z</time>
      </trkpt>
      <trkpt lat="45.52081" lon="6.69">
        <ele>1877.59</ele>
        <time>2016-02-17T12:47:03Z</time>
      </trkpt>
      <trkpt lat="45.52078" lon="6.69001">
        <ele>1877.59</ele>
        <time>2016-02-17T12:47:04Z</time>
      </trkpt>
      <trkpt lat="45.52075" lon="6.69002">
        <ele>1877.59</ele>
        <time>2016-02-17T12:47:05Z</time>
      </trkpt>
      <trkpt lat="45.52073" lon="6.69003">
        <ele>1877.59</ele>
        <time>2016-02-17T12:47:06Z</time>
      </trkpt>
      <trkpt lat="45.52063" lon="6.69009">
        <ele>1876.63</ele>
        <time>2016-02-17T12:47:10Z</time>
      </trkpt>
      <trkpt lat="45.52062" lon="6.6901">
        <ele>1876.63</ele>
        <time>2016-02-17T12:47:11Z</time>
      </trkpt>
      <trkpt lat="45.52042" lon="6.69039">
        <ele>1875.19</ele>
        <time>2016-02-17T12:47:23Z</time>
      </trkpt>
      <trkpt lat="45.52041" lon="6.69041">
        <ele>1874.71</ele>
        <time>2016-02-17T12:47:24Z</time>
      </trkpt>
      <trkpt lat="45.5204" lon="6.69043">
        <ele>1874.71</ele>
        <time>2016-02-17T12:47:25Z</time>
      </trkpt>
      <trkpt lat="45.52037" lon="6.69045">
        <ele>1874.71</ele>
        <time>2016-02-17T12:47:26Z</time>
      </trkpt>
      <trkpt lat="45.52035" lon="6.69047">
        <ele>1875.19</ele>
        <time>2016-02-17T12:47:27Z</time>
      </trkpt>
      <trkpt lat="45.52033" lon="6.69048">
        <ele>1875.19</ele>
        <time>2016-02-17T12:47:28Z</time>
      </trkpt>
      <trkpt lat="45.52032" lon="6.6905">
        <ele>1875.19</ele>
        <time>2016-02-17T12:47:29Z</time>
      </trkpt>
      <trkpt lat="45.5203" lon="6.69056">
        <ele>1875.19</ele>
        <time>2016-02-17T12:47:34Z</time>
      </trkpt>
      <trkpt lat="45.52028" lon="6.69058">
        <ele>1875.19</ele>
        <time>2016-02-17T12:47:35Z</time>
      </trkpt>
      <trkpt lat="45.52026" lon="6.69061">
        <ele>1875.19</ele>
        <time>2016-02-17T12:47:36Z</time>
      </trkpt>
      <trkpt lat="45.52024" lon="6.69063">
        <ele>1875.19</ele>
        <time>2016-02-17T12:47:37Z</time>
      </trkpt>
      <trkpt lat="45.52022" lon="6.69065">
        <ele>1875.19</ele>
        <time>2016-02-17T12:47:38Z</time>
      </trkpt>
      <trkpt lat="45.52019" lon="6.69067">
        <ele>1875.19</ele>
        <time>2016-02-17T12:47:39Z</time>
      </trkpt>
      <trkpt lat="45.52017" lon="6.69068">
        <ele>1875.19</ele>
        <time>2016-02-17T12:47:40Z</time>
      </trkpt>
      <trkpt lat="45.52013" lon="6.69072">
        <ele>1875.19</ele>
        <time>2016-02-17T12:47:43Z</time>
      </trkpt>
      <trkpt lat="45.52012" lon="6.69074">
        <ele>1875.19</ele>
        <time>2016-02-17T12:47:44Z</time>
      </trkpt>
      <trkpt lat="45.5201" lon="6.69076">
        <ele>1875.19</ele>
        <time>2016-02-17T12:47:45Z</time>
      </trkpt>
      <trkpt lat="45.51996" lon="6.69094">
        <ele>1876.15</ele>
        <time>2016-02-17T12:47:58Z</time>
      </trkpt>
      <trkpt lat="45.51991" lon="6.69104">
        <ele>1875.19</ele>
        <time>2016-02-17T12:48:02Z</time>
      </trkpt>
      <trkpt lat="45.51982" lon="6.69126">
        <ele>1871.82</ele>
        <time>2016-02-17T12:48:09Z</time>
      </trkpt>
      <trkpt lat="45.51976" lon="6.69133">
        <ele>1870.86</ele>
        <time>2016-02-17T12:48:11Z</time>
      </trkpt>
      <trkpt lat="45.51974" lon="6.69135">
        <ele>1869.9</ele>
        <time>2016-02-17T12:48:12Z</time>
      </trkpt>
      <trkpt lat="45.51959" lon="6.69148">
        <ele>1867.02</ele>
        <time>2016-02-17T12:48:18Z</time>
      </trkpt>
      <trkpt lat="45.5194" lon="6.6917">
        <ele>1863.65</ele>
        <time>2016-02-17T12:48:25Z</time>
      </trkpt>
      <trkpt lat="45.51918" lon="6.69185">
        <ele>1860.29</ele>
        <time>2016-02-17T12:48:32Z</time>
      </trkpt>
      <trkpt lat="45.51909" lon="6.69189">
        <ele>1858.37</ele>
        <time>2016-02-17T12:48:35Z</time>
      </trkpt>
      <trkpt lat="45.51894" lon="6.69198">
        <ele>1855.96</ele>
        <time>2016-02-17T12:48:39Z</time>
      </trkpt>
      <trkpt lat="45.51869" lon="6.69227">
        <ele>1853.08</ele>
        <time>2016-02-17T12:48:50Z</time>
      </trkpt>
      <trkpt lat="45.51846" lon="6.69251">
        <ele>1852.12</ele>
        <time>2016-02-17T12:49:02Z</time>
      </trkpt>
      <trkpt lat="45.5184" lon="6.69256">
        <ele>1852.12</ele>
        <time>2016-02-17T12:49:07Z</time>
      </trkpt>
      <trkpt lat="45.51838" lon="6.69258">
        <ele>1853.56</ele>
        <time>2016-02-17T12:49:09Z</time>
      </trkpt>
      <trkpt lat="45.51837" lon="6.69259">
        <ele>1853.56</ele>
        <time>2016-02-17T12:49:11Z</time>
      </trkpt>
      <trkpt lat="45.51835" lon="6.69259">
        <ele>1854.04</ele>
        <time>2016-02-17T12:49:12Z</time>
      </trkpt>
      <trkpt lat="45.51831" lon="6.69261">
        <ele>1854.52</ele>
        <time>2016-02-17T12:49:16Z</time>
      </trkpt>
      <trkpt lat="45.5183" lon="6.69262">
        <ele>1855</ele>
        <time>2016-02-17T12:49:17Z</time>
      </trkpt>
      <trkpt lat="45.51828" lon="6.69263">
        <ele>1855</ele>
        <time>2016-02-17T12:49:18Z</time>
      </trkpt>
      <trkpt lat="45.5182" lon="6.6927">
        <ele>1856.44</ele>
        <time>2016-02-17T12:49:24Z</time>
      </trkpt>
      <trkpt lat="45.51818" lon="6.69271">
        <ele>1856.92</ele>
        <time>2016-02-17T12:49:25Z</time>
      </trkpt>
      <trkpt lat="45.51815" lon="6.69273">
        <ele>1857.4</ele>
        <time>2016-02-17T12:49:27Z</time>
      </trkpt>
      <trkpt lat="45.51805" lon="6.69281">
        <ele>1858.85</ele>
        <time>2016-02-17T12:49:34Z</time>
      </trkpt>
      <trkpt lat="45.51804" lon="6.69282">
        <ele>1859.33</ele>
        <time>2016-02-17T12:49:35Z</time>
      </trkpt>
      <trkpt lat="45.51792" lon="6.69289">
        <ele>1861.25</ele>
        <time>2016-02-17T12:49:42Z</time>
      </trkpt>
      <trkpt lat="45.51785" lon="6.69292">
        <ele>1861.73</ele>
        <time>2016-02-17T12:49:46Z</time>
      </trkpt>
      <trkpt lat="45.51784" lon="6.69292">
        <ele>1862.21</ele>
        <time>2016-02-17T12:49:47Z</time>
      </trkpt>
      <trkpt lat="45.51782" lon="6.69293">
        <ele>1862.21</ele>
        <time>2016-02-17T12:49:48Z</time>
      </trkpt>
      <trkpt lat="45.5178" lon="6.69294">
        <ele>1863.17</ele>
        <time>2016-02-17T12:49:49Z</time>
      </trkpt>
      <trkpt lat="45.5177" lon="6.69301">
        <ele>1864.61</ele>
        <time>2016-02-17T12:49:57Z</time>
      </trkpt>
      <trkpt lat="45.51766" lon="6.69301">
        <ele>1865.09</ele>
        <time>2016-02-17T12:49:59Z</time>
      </trkpt>
      <trkpt lat="45.51764" lon="6.69302">
        <ele>1865.58</ele>
        <time>2016-02-17T12:50:01Z</time>
      </trkpt>
      <trkpt lat="45.51754" lon="6.69309">
        <ele>1867.02</ele>
        <time>2016-02-17T12:50:08Z</time>
      </trkpt>
      <trkpt lat="45.51739" lon="6.69319">
        <ele>1868.46</ele>
        <time>2016-02-17T12:50:19Z</time>
      </trkpt>
      <trkpt lat="45.51729" lon="6.69323">
        <ele>1869.42</ele>
        <time>2016-02-17T12:50:24Z</time>
      </trkpt>
      <trkpt lat="45.51723" lon="6.69326">
        <ele>1869.9</ele>
        <time>2016-02-17T12:50:28Z</time>
      </trkpt>
      <trkpt lat="45.51716" lon="6.69329">
        <ele>1870.86</ele>
        <time>2016-02-17T12:50:32Z</time>
      </trkpt>
      <trkpt lat="45.51714" lon="6.69329">
        <ele>1870.86</ele>
        <time>2016-02-17T12:50:33Z</time>
      </trkpt>
      <trkpt lat="45.51712" lon="6.69329">
        <ele>1870.86</ele>
        <time>2016-02-17T12:50:34Z</time>
      </trkpt>
      <trkpt lat="45.5171" lon="6.69329">
        <ele>1871.82</ele>
        <time>2016-02-17T12:50:35Z</time>
      </trkpt>
      <trkpt lat="45.51709" lon="6.69329">
        <ele>1871.34</ele>
        <time>2016-02-17T12:50:36Z</time>
      </trkpt>
      <trkpt lat="45.517" lon="6.69334">
        <ele>1872.3</ele>
        <time>2016-02-17T12:50:41Z</time>
      </trkpt>
      <trkpt lat="45.51698" lon="6.69335">
        <ele>1872.3</ele>
        <time>2016-02-17T12:50:42Z</time>
      </trkpt>
      <trkpt lat="45.51677" lon="6.69345">
        <ele>1873.75</ele>
        <time>2016-02-17T12:50:55Z</time>
      </trkpt>
      <trkpt lat="45.51671" lon="6.69351">
        <ele>1874.71</ele>
        <time>2016-02-17T12:51:00Z</time>
      </trkpt>
      <trkpt lat="45.51666" lon="6.69355">
        <ele>1875.67</ele>
        <time>2016-02-17T12:51:05Z</time>
      </trkpt>
      <trkpt lat="45.51663" lon="6.69356">
        <ele>1876.15</ele>
        <time>2016-02-17T12:51:07Z</time>
      </trkpt>
      <trkpt lat="45.51658" lon="6.69356">
        <ele>1877.11</ele>
        <time>2016-02-17T12:51:10Z</time>
      </trkpt>
      <trkpt lat="45.51639" lon="6.69356">
        <ele>1879.03</ele>
        <time>2016-02-17T12:51:20Z</time>
      </trkpt>
      <trkpt lat="45.51631" lon="6.69361">
        <ele>1880</ele>
        <time>2016-02-17T12:51:24Z</time>
      </trkpt>
      <trkpt lat="45.51629" lon="6.69362">
        <ele>1880.48</ele>
        <time>2016-02-17T12:51:25Z</time>
      </trkpt>
      <trkpt lat="45.51628" lon="6.69363">
        <ele>1880.48</ele>
        <time>2016-02-17T12:51:26Z</time>
      </trkpt>
      <trkpt lat="45.51626" lon="6.69364">
        <ele>1880.48</ele>
        <time>2016-02-17T12:51:27Z</time>
      </trkpt>
      <trkpt lat="45.51624" lon="6.69365">
        <ele>1880.96</ele>
        <time>2016-02-17T12:51:28Z</time>
      </trkpt>
      <trkpt lat="45.51622" lon="6.69366">
        <ele>1880.96</ele>
        <time>2016-02-17T12:51:29Z</time>
      </trkpt>
      <trkpt lat="45.5162" lon="6.69366">
        <ele>1880.96</ele>
        <time>2016-02-17T12:51:30Z</time>
      </trkpt>
      <trkpt lat="45.51619" lon="6.69366">
        <ele>1880.96</ele>
        <time>2016-02-17T12:51:31Z</time>
      </trkpt>
      <trkpt lat="45.51611" lon="6.69377">
        <ele>1883.36</ele>
        <time>2016-02-17T12:51:40Z</time>
      </trkpt>
      <trkpt lat="45.51598" lon="6.69387">
        <ele>1885.76</ele>
        <time>2016-02-17T12:51:50Z</time>
      </trkpt>
      <trkpt lat="45.51596" lon="6.69387">
        <ele>1885.76</ele>
        <time>2016-02-17T12:51:51Z</time>
      </trkpt>
      <trkpt lat="45.51584" lon="6.69391">
        <ele>1887.21</ele>
        <time>2016-02-17T12:52:00Z</time>
      </trkpt>
      <trkpt lat="45.51565" lon="6.69399">
        <ele>1890.57</ele>
        <time>2016-02-17T12:52:11Z</time>
      </trkpt>
      <trkpt lat="45.51562" lon="6.694">
        <ele>1891.05</ele>
        <time>2016-02-17T12:52:14Z</time>
      </trkpt>
      <trkpt lat="45.51557" lon="6.69401">
        <ele>1892.49</ele>
        <time>2016-02-17T12:52:17Z</time>
      </trkpt>
      <trkpt lat="45.5154" lon="6.6941">
        <ele>1895.38</ele>
        <time>2016-02-17T12:52:28Z</time>
      </trkpt>
      <trkpt lat="45.51526" lon="6.69419">
        <ele>1898.74</ele>
        <time>2016-02-17T12:52:39Z</time>
      </trkpt>
      <trkpt lat="45.51516" lon="6.6943">
        <ele>1901.63</ele>
        <time>2016-02-17T12:52:49Z</time>
      </trkpt>
      <trkpt lat="45.51505" lon="6.69446">
        <ele>1904.51</ele>
        <time>2016-02-17T12:53:00Z</time>
      </trkpt>
      <trkpt lat="45.51496" lon="6.69458">
        <ele>1905.95</ele>
        <time>2016-02-17T12:53:17Z</time>
      </trkpt>
      <trkpt lat="45.515" lon="6.69458">
        <ele>1905.95</ele>
        <time>2016-02-17T12:53:39Z</time>
      </trkpt>
      <trkpt lat="45.51499" lon="6.69459">
        <ele>1905.95</ele>
        <time>2016-02-17T12:54:00Z</time>
      </trkpt>
      <trkpt lat="45.51499" lon="6.6946">
        <ele>1905.95</ele>
        <time>2016-02-17T12:54:18Z</time>
      </trkpt>
      <trkpt lat="45.51499" lon="6.6946">
        <ele>1905.95</ele>
        <time>2016-02-17T12:54:43Z</time>
      </trkpt>
      <trkpt lat="45.51496" lon="6.69459">
        <ele>1905.47</ele>
        <time>2016-02-17T12:55:05Z</time>
      </trkpt>
      <trkpt lat="45.51495" lon="6.69461">
        <ele>1905.47</ele>
        <time>2016-02-17T12:55:21Z</time>
      </trkpt>
      <trkpt lat="45.51496" lon="6.69462">
        <ele>1905.47</ele>
        <time>2016-02-17T12:55:25Z</time>
      </trkpt>
      <trkpt lat="45.51495" lon="6.69464">
        <ele>1905.47</ele>
        <time>2016-02-17T12:55:26Z</time>
      </trkpt>
      <trkpt lat="45.51495" lon="6.69465">
        <ele>1905.47</ele>
        <time>2016-02-17T12:55:27Z</time>
      </trkpt>
      <trkpt lat="45.51495" lon="6.69466">
        <ele>1905.47</ele>
        <time>2016-02-17T12:55:41Z</time>
      </trkpt>
      <trkpt lat="45.51494" lon="6.69469">
        <ele>1905.47</ele>
        <time>2016-02-17T12:55:43Z</time>
      </trkpt>
      <trkpt lat="45.51493" lon="6.6947">
        <ele>1905.47</ele>
        <time>2016-02-17T12:55:44Z</time>
      </trkpt>
      <trkpt lat="45.51493" lon="6.69472">
        <ele>1905.47</ele>
        <time>2016-02-17T12:55:45Z</time>
      </trkpt>
      <trkpt lat="45.51492" lon="6.69474">
        <ele>1905.47</ele>
        <time>2016-02-17T12:55:46Z</time>
      </trkpt>
      <trkpt lat="45.5149" lon="6.69476">
        <ele>1904.51</ele>
        <time>2016-02-17T12:55:47Z</time>
      </trkpt>
      <trkpt lat="45.51489" lon="6.69477">
        <ele>1904.51</ele>
        <time>2016-02-17T12:55:48Z</time>
      </trkpt>
      <trkpt lat="45.51489" lon="6.6948">
        <ele>1904.51</ele>
        <time>2016-02-17T12:55:49Z</time>
      </trkpt>
      <trkpt lat="45.51481" lon="6.69503">
        <ele>1903.55</ele>
        <time>2016-02-17T12:56:02Z</time>
      </trkpt>
      <trkpt lat="45.5148" lon="6.69505">
        <ele>1903.55</ele>
        <time>2016-02-17T12:56:03Z</time>
      </trkpt>
      <trkpt lat="45.5148" lon="6.69507">
        <ele>1903.07</ele>
        <time>2016-02-17T12:56:04Z</time>
      </trkpt>
      <trkpt lat="45.5148" lon="6.69509">
        <ele>1903.07</ele>
        <time>2016-02-17T12:56:05Z</time>
      </trkpt>
      <trkpt lat="45.51479" lon="6.6951">
        <ele>1903.07</ele>
        <time>2016-02-17T12:56:06Z</time>
      </trkpt>
      <trkpt lat="45.51478" lon="6.69511">
        <ele>1903.07</ele>
        <time>2016-02-17T12:56:07Z</time>
      </trkpt>
      <trkpt lat="45.51477" lon="6.69513">
        <ele>1903.07</ele>
        <time>2016-02-17T12:56:08Z</time>
      </trkpt>
      <trkpt lat="45.51475" lon="6.69517">
        <ele>1903.07</ele>
        <time>2016-02-17T12:56:11Z</time>
      </trkpt>
      <trkpt lat="45.51473" lon="6.69522">
        <ele>1903.07</ele>
        <time>2016-02-17T12:56:14Z</time>
      </trkpt>
      <trkpt lat="45.51473" lon="6.69524">
        <ele>1903.07</ele>
        <time>2016-02-17T12:56:15Z</time>
      </trkpt>
      <trkpt lat="45.5147" lon="6.69531">
        <ele>1903.07</ele>
        <time>2016-02-17T12:56:19Z</time>
      </trkpt>
      <trkpt lat="45.51469" lon="6.69555">
        <ele>1903.07</ele>
        <time>2016-02-17T12:56:30Z</time>
      </trkpt>
      <trkpt lat="45.51468" lon="6.69563">
        <ele>1903.07</ele>
        <time>2016-02-17T12:56:34Z</time>
      </trkpt>
      <trkpt lat="45.51463" lon="6.69592">
        <ele>1903.07</ele>
        <time>2016-02-17T12:56:49Z</time>
      </trkpt>
      <trkpt lat="45.51462" lon="6.69594">
        <ele>1903.07</ele>
        <time>2016-02-17T12:56:51Z</time>
      </trkpt>
      <trkpt lat="45.51461" lon="6.69608">
        <ele>1904.51</ele>
        <time>2016-02-17T12:56:58Z</time>
      </trkpt>
      <trkpt lat="45.5146" lon="6.69633">
        <ele>1904.99</ele>
        <time>2016-02-17T12:57:10Z</time>
      </trkpt>
      <trkpt lat="45.51456" lon="6.69649">
        <ele>1908.35</ele>
        <time>2016-02-17T12:57:23Z</time>
      </trkpt>
      <trkpt lat="45.51453" lon="6.69663">
        <ele>1911.72</ele>
        <time>2016-02-17T12:57:32Z</time>
      </trkpt>
      <trkpt lat="45.5145" lon="6.69676">
        <ele>1912.2</ele>
        <time>2016-02-17T12:57:43Z</time>
      </trkpt>
      <trkpt lat="45.51442" lon="6.69684">
        <ele>1913.16</ele>
        <time>2016-02-17T12:57:57Z</time>
      </trkpt>
      <trkpt lat="45.5144" lon="6.69685">
        <ele>1913.16</ele>
        <time>2016-02-17T12:58:09Z</time>
      </trkpt>
      <trkpt lat="45.51436" lon="6.69681">
        <ele>1914.12</ele>
        <time>2016-02-17T12:58:25Z</time>
      </trkpt>
      <trkpt lat="45.51436" lon="6.69681">
        <ele>1917.49</ele>
        <time>2016-02-17T12:58:28Z</time>
      </trkpt>
      <trkpt lat="45.51445" lon="6.69701">
        <ele>1930.95</ele>
        <time>2016-02-17T12:58:51Z</time>
      </trkpt>
      <trkpt lat="45.51433" lon="6.69705">
        <ele>1931.91</ele>
        <time>2016-02-17T12:59:09Z</time>
      </trkpt>
      <trkpt lat="45.51427" lon="6.69716">
        <ele>1931.43</ele>
        <time>2016-02-17T12:59:18Z</time>
      </trkpt>
      <trkpt lat="45.51422" lon="6.69724">
        <ele>1931.43</ele>
        <time>2016-02-17T12:59:28Z</time>
      </trkpt>
      <trkpt lat="45.51439" lon="6.69738">
        <ele>1931.43</ele>
        <time>2016-02-17T12:59:42Z</time>
      </trkpt>
      <trkpt lat="45.51445" lon="6.69745">
        <ele>1931.43</ele>
        <time>2016-02-17T12:59:56Z</time>
      </trkpt>
      <trkpt lat="45.51448" lon="6.69747">
        <ele>1931.43</ele>
        <time>2016-02-17T13:00:27Z</time>
      </trkpt>
      <trkpt lat="45.51452" lon="6.69758">
        <ele>1930.95</ele>
        <time>2016-02-17T13:01:06Z</time>
      </trkpt>
      <trkpt lat="45.5145" lon="6.69755">
        <ele>1932.39</ele>
        <time>2016-02-17T13:01:18Z</time>
      </trkpt>
      <trkpt lat="45.5145" lon="6.69754">
        <ele>1930.95</ele>
        <time>2016-02-17T13:01:21Z</time>
      </trkpt>
      <trkpt lat="45.51449" lon="6.6975">
        <ele>1930.46</ele>
        <time>2016-02-17T13:01:36Z</time>
      </trkpt>
      <trkpt lat="45.51447" lon="6.69746">
        <ele>1929.98</ele>
        <time>2016-02-17T13:01:55Z</time>
      </trkpt>
      <trkpt lat="45.51447" lon="6.69751">
        <ele>1930.95</ele>
        <time>2016-02-17T13:02:13Z</time>
      </trkpt>
    </trkseg>
  </trk>
</gpx>